<?xml version="1.0" encoding="UTF-8" standalone="no" ?>
<gpx xmlns="http://www.topografix.com/GPX/1/1" xmlns:xsi="http://www.w3.org/2001/XMLSchema-instance" xsi:schemaLocation="http://www.topografix.com/GPX/1/1 http://www.topografix.com/GPX/1/1/gpx.xsd" version="1.1" creator="VisuGPX - https://www.visugpx.com">
  <metadata>
    <name>montagne de gros foug</name>
    <desc><![CDATA[montagne sympa]]></desc>
  </metadata>
  <trk>
    <name><![CDATA[au dessus de rumilly]]></name>
    <trkseg>
      <trkpt lat="45.89948" lon="5.88192">
        <ele>702.40002441406</ele>
        <time>2014-02-20T14:45:29.000Z</time>
      </trkpt>
      <trkpt lat="45.89946" lon="5.88188">
        <ele>703.59997558594</ele>
        <time>2014-02-20T14:45:34.000Z</time>
      </trkpt>
      <trkpt lat="45.89944" lon="5.88185">
        <ele>704.40002441406</ele>
        <time>2014-02-20T14:45:39.000Z</time>
      </trkpt>
      <trkpt lat="45.89946" lon="5.8818">
        <ele>705.40002441406</ele>
        <time>2014-02-20T14:45:44.000Z</time>
      </trkpt>
      <trkpt lat="45.89945" lon="5.88175">
        <ele>706.79998779297</ele>
        <time>2014-02-20T14:45:49.000Z</time>
      </trkpt>
      <trkpt lat="45.89944" lon="5.88168">
        <ele>708.79998779297</ele>
        <time>2014-02-20T14:45:54.000Z</time>
      </trkpt>
      <trkpt lat="45.89943" lon="5.88162">
        <ele>710.79998779297</ele>
        <time>2014-02-20T14:45:58.000Z</time>
      </trkpt>
      <trkpt lat="45.89944" lon="5.88159">
        <ele>711.79998779297</ele>
        <time>2014-02-20T14:46:01.000Z</time>
      </trkpt>
      <trkpt lat="45.89947" lon="5.88155">
        <ele>713</ele>
        <time>2014-02-20T14:46:06.000Z</time>
      </trkpt>
      <trkpt lat="45.89947" lon="5.88151">
        <ele>714.79998779297</ele>
        <time>2014-02-20T14:46:11.000Z</time>
      </trkpt>
      <trkpt lat="45.89947" lon="5.88144">
        <ele>717.20001220703</ele>
        <time>2014-02-20T14:46:18.000Z</time>
      </trkpt>
      <trkpt lat="45.89947" lon="5.88138">
        <ele>719.59997558594</ele>
        <time>2014-02-20T14:46:23.000Z</time>
      </trkpt>
      <trkpt lat="45.89945" lon="5.88134">
        <ele>721.40002441406</ele>
        <time>2014-02-20T14:46:28.000Z</time>
      </trkpt>
      <trkpt lat="45.89944" lon="5.88127">
        <ele>723.79998779297</ele>
        <time>2014-02-20T14:46:35.000Z</time>
      </trkpt>
      <trkpt lat="45.89942" lon="5.88123">
        <ele>725.40002441406</ele>
        <time>2014-02-20T14:46:40.000Z</time>
      </trkpt>
      <trkpt lat="45.89942" lon="5.88119">
        <ele>726.79998779297</ele>
        <time>2014-02-20T14:46:45.000Z</time>
      </trkpt>
      <trkpt lat="45.8994" lon="5.88117">
        <ele>727.79998779297</ele>
        <time>2014-02-20T14:46:53.000Z</time>
      </trkpt>
      <trkpt lat="45.89939" lon="5.88115">
        <ele>728.59997558594</ele>
        <time>2014-02-20T14:46:57.000Z</time>
      </trkpt>
      <trkpt lat="45.89939" lon="5.88115">
        <ele>728.79998779297</ele>
        <time>2014-02-20T14:47:04.000Z</time>
      </trkpt>
      <trkpt lat="45.89938" lon="5.88114">
        <ele>729</ele>
        <time>2014-02-20T14:47:10.000Z</time>
      </trkpt>
      <trkpt lat="45.89938" lon="5.88112">
        <ele>729.59997558594</ele>
        <time>2014-02-20T14:47:16.000Z</time>
      </trkpt>
      <trkpt lat="45.89936" lon="5.88108">
        <ele>731</ele>
        <time>2014-02-20T14:47:21.000Z</time>
      </trkpt>
      <trkpt lat="45.89934" lon="5.88105">
        <ele>732.20001220703</ele>
        <time>2014-02-20T14:47:25.000Z</time>
      </trkpt>
      <trkpt lat="45.89933" lon="5.88102">
        <ele>733.20001220703</ele>
        <time>2014-02-20T14:47:30.000Z</time>
      </trkpt>
      <trkpt lat="45.89933" lon="5.88097">
        <ele>735</ele>
        <time>2014-02-20T14:47:35.000Z</time>
      </trkpt>
      <trkpt lat="45.89934" lon="5.88096">
        <ele>735.59997558594</ele>
        <time>2014-02-20T14:47:38.000Z</time>
      </trkpt>
      <trkpt lat="45.89933" lon="5.88094">
        <ele>736.20001220703</ele>
        <time>2014-02-20T14:47:42.000Z</time>
      </trkpt>
      <trkpt lat="45.89931" lon="5.88088">
        <ele>738.40002441406</ele>
        <time>2014-02-20T14:47:47.000Z</time>
      </trkpt>
      <trkpt lat="45.89932" lon="5.88081">
        <ele>741.20001220703</ele>
        <time>2014-02-20T14:47:53.000Z</time>
      </trkpt>
      <trkpt lat="45.89933" lon="5.88076">
        <ele>743</ele>
        <time>2014-02-20T14:47:57.000Z</time>
      </trkpt>
      <trkpt lat="45.89932" lon="5.88072">
        <ele>744.40002441406</ele>
        <time>2014-02-20T14:48:01.000Z</time>
      </trkpt>
      <trkpt lat="45.89928" lon="5.88064">
        <ele>747.59997558594</ele>
        <time>2014-02-20T14:48:08.000Z</time>
      </trkpt>
      <trkpt lat="45.89928" lon="5.88061">
        <ele>748.59997558594</ele>
        <time>2014-02-20T14:48:14.000Z</time>
      </trkpt>
      <trkpt lat="45.89929" lon="5.88057">
        <ele>750.40002441406</ele>
        <time>2014-02-20T14:48:19.000Z</time>
      </trkpt>
      <trkpt lat="45.89928" lon="5.88053">
        <ele>751.59997558594</ele>
        <time>2014-02-20T14:48:23.000Z</time>
      </trkpt>
      <trkpt lat="45.8993" lon="5.88049">
        <ele>753.20001220703</ele>
        <time>2014-02-20T14:48:28.000Z</time>
      </trkpt>
      <trkpt lat="45.89929" lon="5.88047">
        <ele>753.79998779297</ele>
        <time>2014-02-20T14:48:35.000Z</time>
      </trkpt>
      <trkpt lat="45.89927" lon="5.88043">
        <ele>755.40002441406</ele>
        <time>2014-02-20T14:48:39.000Z</time>
      </trkpt>
      <trkpt lat="45.89926" lon="5.8804">
        <ele>756.59997558594</ele>
        <time>2014-02-20T14:48:45.000Z</time>
      </trkpt>
      <trkpt lat="45.89925" lon="5.88036">
        <ele>758</ele>
        <time>2014-02-20T14:48:50.000Z</time>
      </trkpt>
      <trkpt lat="45.89923" lon="5.88025">
        <ele>762.40002441406</ele>
        <time>2014-02-20T14:49:12.000Z</time>
      </trkpt>
      <trkpt lat="45.89922" lon="5.88024">
        <ele>762.79998779297</ele>
        <time>2014-02-20T14:49:18.000Z</time>
      </trkpt>
      <trkpt lat="45.89927" lon="5.88018">
        <ele>765</ele>
        <time>2014-02-20T14:49:29.000Z</time>
      </trkpt>
      <trkpt lat="45.89926" lon="5.88014">
        <ele>766.79998779297</ele>
        <time>2014-02-20T14:49:34.000Z</time>
      </trkpt>
      <trkpt lat="45.89926" lon="5.88008">
        <ele>768.79998779297</ele>
        <time>2014-02-20T14:49:40.000Z</time>
      </trkpt>
      <trkpt lat="45.89925" lon="5.88004">
        <ele>770.59997558594</ele>
        <time>2014-02-20T14:49:45.000Z</time>
      </trkpt>
      <trkpt lat="45.89924" lon="5.88">
        <ele>772.20001220703</ele>
        <time>2014-02-20T14:49:50.000Z</time>
      </trkpt>
      <trkpt lat="45.89923" lon="5.87997">
        <ele>772.79998779297</ele>
        <time>2014-02-20T14:49:55.000Z</time>
      </trkpt>
      <trkpt lat="45.89922" lon="5.87994">
        <ele>774</ele>
        <time>2014-02-20T14:50:04.000Z</time>
      </trkpt>
      <trkpt lat="45.89921" lon="5.87989">
        <ele>775.79998779297</ele>
        <time>2014-02-20T14:50:09.000Z</time>
      </trkpt>
      <trkpt lat="45.8992" lon="5.87983">
        <ele>777.40002441406</ele>
        <time>2014-02-20T14:50:15.000Z</time>
      </trkpt>
      <trkpt lat="45.89921" lon="5.87979">
        <ele>779</ele>
        <time>2014-02-20T14:50:22.000Z</time>
      </trkpt>
      <trkpt lat="45.89922" lon="5.87973">
        <ele>780.79998779297</ele>
        <time>2014-02-20T14:50:32.000Z</time>
      </trkpt>
      <trkpt lat="45.89921" lon="5.87968">
        <ele>782.20001220703</ele>
        <time>2014-02-20T14:50:39.000Z</time>
      </trkpt>
      <trkpt lat="45.89921" lon="5.87964">
        <ele>783.59997558594</ele>
        <time>2014-02-20T14:50:43.000Z</time>
      </trkpt>
      <trkpt lat="45.8992" lon="5.8796">
        <ele>785</ele>
        <time>2014-02-20T14:50:47.000Z</time>
      </trkpt>
      <trkpt lat="45.89918" lon="5.87955">
        <ele>786.59997558594</ele>
        <time>2014-02-20T14:50:53.000Z</time>
      </trkpt>
      <trkpt lat="45.89919" lon="5.8795">
        <ele>788.20001220703</ele>
        <time>2014-02-20T14:51:00.000Z</time>
      </trkpt>
      <trkpt lat="45.89919" lon="5.87945">
        <ele>789.79998779297</ele>
        <time>2014-02-20T14:51:07.000Z</time>
      </trkpt>
      <trkpt lat="45.89919" lon="5.87938">
        <ele>792</ele>
        <time>2014-02-20T14:51:13.000Z</time>
      </trkpt>
      <trkpt lat="45.89919" lon="5.87935">
        <ele>793</ele>
        <time>2014-02-20T14:51:18.000Z</time>
      </trkpt>
      <trkpt lat="45.89918" lon="5.87932">
        <ele>794.20001220703</ele>
        <time>2014-02-20T14:51:23.000Z</time>
      </trkpt>
      <trkpt lat="45.89916" lon="5.87928">
        <ele>795.59997558594</ele>
        <time>2014-02-20T14:51:29.000Z</time>
      </trkpt>
      <trkpt lat="45.89915" lon="5.87922">
        <ele>797.59997558594</ele>
        <time>2014-02-20T14:51:34.000Z</time>
      </trkpt>
      <trkpt lat="45.89914" lon="5.87916">
        <ele>799.40002441406</ele>
        <time>2014-02-20T14:51:39.000Z</time>
      </trkpt>
      <trkpt lat="45.89914" lon="5.87913">
        <ele>800.20001220703</ele>
        <time>2014-02-20T14:51:45.000Z</time>
      </trkpt>
      <trkpt lat="45.89913" lon="5.8791">
        <ele>801</ele>
        <time>2014-02-20T14:51:49.000Z</time>
      </trkpt>
      <trkpt lat="45.89913" lon="5.87905">
        <ele>802.40002441406</ele>
        <time>2014-02-20T14:51:54.000Z</time>
      </trkpt>
      <trkpt lat="45.89912" lon="5.87901">
        <ele>803.40002441406</ele>
        <time>2014-02-20T14:52:00.000Z</time>
      </trkpt>
      <trkpt lat="45.89914" lon="5.87899">
        <ele>803.79998779297</ele>
        <time>2014-02-20T14:52:04.000Z</time>
      </trkpt>
      <trkpt lat="45.89911" lon="5.87896">
        <ele>805</ele>
        <time>2014-02-20T14:52:11.000Z</time>
      </trkpt>
      <trkpt lat="45.89908" lon="5.87894">
        <ele>806</ele>
        <time>2014-02-20T14:52:18.000Z</time>
      </trkpt>
      <trkpt lat="45.89905" lon="5.87893">
        <ele>806.59997558594</ele>
        <time>2014-02-20T14:52:25.000Z</time>
      </trkpt>
      <trkpt lat="45.89902" lon="5.87893">
        <ele>807.20001220703</ele>
        <time>2014-02-20T14:52:30.000Z</time>
      </trkpt>
      <trkpt lat="45.89904" lon="5.87887">
        <ele>808.20001220703</ele>
        <time>2014-02-20T14:52:35.000Z</time>
      </trkpt>
      <trkpt lat="45.89904" lon="5.87877">
        <ele>810.79998779297</ele>
        <time>2014-02-20T14:52:47.000Z</time>
      </trkpt>
      <trkpt lat="45.89904" lon="5.87873">
        <ele>812</ele>
        <time>2014-02-20T14:52:54.000Z</time>
      </trkpt>
      <trkpt lat="45.89904" lon="5.87868">
        <ele>813</ele>
        <time>2014-02-20T14:52:59.000Z</time>
      </trkpt>
      <trkpt lat="45.89904" lon="5.87863">
        <ele>814.40002441406</ele>
        <time>2014-02-20T14:53:06.000Z</time>
      </trkpt>
      <trkpt lat="45.89903" lon="5.87859">
        <ele>815.40002441406</ele>
        <time>2014-02-20T14:53:10.000Z</time>
      </trkpt>
      <trkpt lat="45.89903" lon="5.87855">
        <ele>816.40002441406</ele>
        <time>2014-02-20T14:53:14.000Z</time>
      </trkpt>
      <trkpt lat="45.89901" lon="5.87851">
        <ele>817.79998779297</ele>
        <time>2014-02-20T14:53:19.000Z</time>
      </trkpt>
      <trkpt lat="45.899" lon="5.87847">
        <ele>819</ele>
        <time>2014-02-20T14:53:23.000Z</time>
      </trkpt>
      <trkpt lat="45.89898" lon="5.87843">
        <ele>820.20001220703</ele>
        <time>2014-02-20T14:53:29.000Z</time>
      </trkpt>
      <trkpt lat="45.89897" lon="5.87844">
        <ele>820.20001220703</ele>
        <time>2014-02-20T14:53:35.000Z</time>
      </trkpt>
      <trkpt lat="45.89898" lon="5.87843">
        <ele>820.20001220703</ele>
        <time>2014-02-20T14:53:42.000Z</time>
      </trkpt>
      <trkpt lat="45.89899" lon="5.8784">
        <ele>820.79998779297</ele>
        <time>2014-02-20T14:53:54.000Z</time>
      </trkpt>
      <trkpt lat="45.89898" lon="5.87833">
        <ele>822.79998779297</ele>
        <time>2014-02-20T14:54:00.000Z</time>
      </trkpt>
      <trkpt lat="45.89899" lon="5.87826">
        <ele>823.59997558594</ele>
        <time>2014-02-20T14:54:12.000Z</time>
      </trkpt>
      <trkpt lat="45.89898" lon="5.87822">
        <ele>824.40002441406</ele>
        <time>2014-02-20T14:54:18.000Z</time>
      </trkpt>
      <trkpt lat="45.89898" lon="5.87821">
        <ele>824.59997558594</ele>
        <time>2014-02-20T14:54:19.000Z</time>
      </trkpt>
      <trkpt lat="45.899" lon="5.87806">
        <ele>826.40002441406</ele>
        <time>2014-02-20T14:54:24.000Z</time>
      </trkpt>
      <trkpt lat="45.899" lon="5.878">
        <ele>827.20001220703</ele>
        <time>2014-02-20T14:54:28.000Z</time>
      </trkpt>
      <trkpt lat="45.899" lon="5.87796">
        <ele>827.79998779297</ele>
        <time>2014-02-20T14:54:31.000Z</time>
      </trkpt>
      <trkpt lat="45.89903" lon="5.87784">
        <ele>829</ele>
        <time>2014-02-20T14:54:38.000Z</time>
      </trkpt>
      <trkpt lat="45.89905" lon="5.87779">
        <ele>829.40002441406</ele>
        <time>2014-02-20T14:54:43.000Z</time>
      </trkpt>
      <trkpt lat="45.8991" lon="5.87767">
        <ele>830.20001220703</ele>
        <time>2014-02-20T14:54:53.000Z</time>
      </trkpt>
      <trkpt lat="45.89911" lon="5.87762">
        <ele>830.40002441406</ele>
        <time>2014-02-20T14:55:01.000Z</time>
      </trkpt>
      <trkpt lat="45.89914" lon="5.87756">
        <ele>830.79998779297</ele>
        <time>2014-02-20T14:55:08.000Z</time>
      </trkpt>
      <trkpt lat="45.89915" lon="5.87755">
        <ele>830.79998779297</ele>
        <time>2014-02-20T14:55:15.000Z</time>
      </trkpt>
      <trkpt lat="45.89911" lon="5.87753">
        <ele>831.79998779297</ele>
        <time>2014-02-20T14:55:40.000Z</time>
      </trkpt>
      <trkpt lat="45.89911" lon="5.87753">
        <ele>831.79998779297</ele>
        <time>2014-02-20T14:56:01.000Z</time>
      </trkpt>
      <trkpt lat="45.89915" lon="5.87747">
        <ele>831.79998779297</ele>
        <time>2014-02-20T14:56:17.000Z</time>
      </trkpt>
      <trkpt lat="45.89913" lon="5.87745">
        <ele>832.40002441406</ele>
        <time>2014-02-20T14:56:22.000Z</time>
      </trkpt>
      <trkpt lat="45.89913" lon="5.87743">
        <ele>832.79998779297</ele>
        <time>2014-02-20T14:56:23.000Z</time>
      </trkpt>
      <trkpt lat="45.89912" lon="5.87727">
        <ele>835</ele>
        <time>2014-02-20T14:56:31.000Z</time>
      </trkpt>
      <trkpt lat="45.89911" lon="5.87717">
        <ele>836.20001220703</ele>
        <time>2014-02-20T14:56:37.000Z</time>
      </trkpt>
      <trkpt lat="45.89912" lon="5.87712">
        <ele>836.79998779297</ele>
        <time>2014-02-20T14:56:41.000Z</time>
      </trkpt>
      <trkpt lat="45.89912" lon="5.87705">
        <ele>837.59997558594</ele>
        <time>2014-02-20T14:56:46.000Z</time>
      </trkpt>
      <trkpt lat="45.89912" lon="5.87703">
        <ele>838</ele>
        <time>2014-02-20T14:56:50.000Z</time>
      </trkpt>
      <trkpt lat="45.89912" lon="5.87703">
        <ele>837.79998779297</ele>
        <time>2014-02-20T14:56:52.000Z</time>
      </trkpt>
      <trkpt lat="45.89914" lon="5.87698">
        <ele>838</ele>
        <time>2014-02-20T14:56:58.000Z</time>
      </trkpt>
      <trkpt lat="45.89912" lon="5.87693">
        <ele>839</ele>
        <time>2014-02-20T14:57:03.000Z</time>
      </trkpt>
      <trkpt lat="45.89908" lon="5.87691">
        <ele>840.20001220703</ele>
        <time>2014-02-20T14:57:09.000Z</time>
      </trkpt>
      <trkpt lat="45.89906" lon="5.87686">
        <ele>841.59997558594</ele>
        <time>2014-02-20T14:57:15.000Z</time>
      </trkpt>
      <trkpt lat="45.89903" lon="5.87679">
        <ele>843.20001220703</ele>
        <time>2014-02-20T14:57:24.000Z</time>
      </trkpt>
      <trkpt lat="45.899" lon="5.87674">
        <ele>844.40002441406</ele>
        <time>2014-02-20T14:57:30.000Z</time>
      </trkpt>
      <trkpt lat="45.89898" lon="5.87671">
        <ele>845.59997558594</ele>
        <time>2014-02-20T14:57:37.000Z</time>
      </trkpt>
      <trkpt lat="45.89896" lon="5.87668">
        <ele>846.40002441406</ele>
        <time>2014-02-20T14:57:44.000Z</time>
      </trkpt>
      <trkpt lat="45.89896" lon="5.87666">
        <ele>847</ele>
        <time>2014-02-20T14:57:46.000Z</time>
      </trkpt>
      <trkpt lat="45.89896" lon="5.87658">
        <ele>848.59997558594</ele>
        <time>2014-02-20T14:57:51.000Z</time>
      </trkpt>
      <trkpt lat="45.89897" lon="5.87652">
        <ele>849.79998779297</ele>
        <time>2014-02-20T14:57:56.000Z</time>
      </trkpt>
      <trkpt lat="45.89898" lon="5.87645">
        <ele>850.79998779297</ele>
        <time>2014-02-20T14:58:01.000Z</time>
      </trkpt>
      <trkpt lat="45.89898" lon="5.8764">
        <ele>852</ele>
        <time>2014-02-20T14:58:04.000Z</time>
      </trkpt>
      <trkpt lat="45.89894" lon="5.87633">
        <ele>854.40002441406</ele>
        <time>2014-02-20T14:58:10.000Z</time>
      </trkpt>
      <trkpt lat="45.89893" lon="5.87631">
        <ele>855.20001220703</ele>
        <time>2014-02-20T14:58:15.000Z</time>
      </trkpt>
      <trkpt lat="45.89891" lon="5.87627">
        <ele>856.59997558594</ele>
        <time>2014-02-20T14:58:19.000Z</time>
      </trkpt>
      <trkpt lat="45.89888" lon="5.87625">
        <ele>858.20001220703</ele>
        <time>2014-02-20T14:58:23.000Z</time>
      </trkpt>
      <trkpt lat="45.89886" lon="5.87623">
        <ele>859</ele>
        <time>2014-02-20T14:58:27.000Z</time>
      </trkpt>
      <trkpt lat="45.89884" lon="5.87621">
        <ele>860</ele>
        <time>2014-02-20T14:58:34.000Z</time>
      </trkpt>
      <trkpt lat="45.89883" lon="5.87618">
        <ele>861.20001220703</ele>
        <time>2014-02-20T14:58:38.000Z</time>
      </trkpt>
      <trkpt lat="45.89884" lon="5.87613">
        <ele>862</ele>
        <time>2014-02-20T14:58:46.000Z</time>
      </trkpt>
      <trkpt lat="45.89882" lon="5.87614">
        <ele>862.40002441406</ele>
        <time>2014-02-20T14:58:51.000Z</time>
      </trkpt>
      <trkpt lat="45.89881" lon="5.87612">
        <ele>863.20001220703</ele>
        <time>2014-02-20T14:58:56.000Z</time>
      </trkpt>
      <trkpt lat="45.89879" lon="5.87609">
        <ele>864.20001220703</ele>
        <time>2014-02-20T14:59:01.000Z</time>
      </trkpt>
      <trkpt lat="45.89876" lon="5.87609">
        <ele>865.20001220703</ele>
        <time>2014-02-20T14:59:07.000Z</time>
      </trkpt>
      <trkpt lat="45.89874" lon="5.8761">
        <ele>865.79998779297</ele>
        <time>2014-02-20T14:59:12.000Z</time>
      </trkpt>
      <trkpt lat="45.89871" lon="5.87608">
        <ele>867</ele>
        <time>2014-02-20T14:59:18.000Z</time>
      </trkpt>
      <trkpt lat="45.89869" lon="5.87603">
        <ele>869</ele>
        <time>2014-02-20T14:59:24.000Z</time>
      </trkpt>
      <trkpt lat="45.89866" lon="5.87595">
        <ele>871.59997558594</ele>
        <time>2014-02-20T14:59:31.000Z</time>
      </trkpt>
      <trkpt lat="45.89864" lon="5.87592">
        <ele>873</ele>
        <time>2014-02-20T14:59:42.000Z</time>
      </trkpt>
      <trkpt lat="45.89862" lon="5.87591">
        <ele>874</ele>
        <time>2014-02-20T14:59:47.000Z</time>
      </trkpt>
      <trkpt lat="45.89862" lon="5.87589">
        <ele>874.59997558594</ele>
        <time>2014-02-20T14:59:51.000Z</time>
      </trkpt>
      <trkpt lat="45.89858" lon="5.87588">
        <ele>875.59997558594</ele>
        <time>2014-02-20T14:59:56.000Z</time>
      </trkpt>
      <trkpt lat="45.89856" lon="5.87585">
        <ele>877.20001220703</ele>
        <time>2014-02-20T15:00:03.000Z</time>
      </trkpt>
      <trkpt lat="45.89855" lon="5.87583">
        <ele>878</ele>
        <time>2014-02-20T15:00:09.000Z</time>
      </trkpt>
      <trkpt lat="45.89855" lon="5.87583">
        <ele>878.20001220703</ele>
        <time>2014-02-20T15:00:11.000Z</time>
      </trkpt>
      <trkpt lat="45.89853" lon="5.87584">
        <ele>878.20001220703</ele>
        <time>2014-02-20T15:00:13.000Z</time>
      </trkpt>
      <trkpt lat="45.8985" lon="5.87583">
        <ele>879.59997558594</ele>
        <time>2014-02-20T15:00:20.000Z</time>
      </trkpt>
      <trkpt lat="45.89842" lon="5.87575">
        <ele>884.40002441406</ele>
        <time>2014-02-20T15:00:35.000Z</time>
      </trkpt>
      <trkpt lat="45.8984" lon="5.87574">
        <ele>885.59997558594</ele>
        <time>2014-02-20T15:00:40.000Z</time>
      </trkpt>
      <trkpt lat="45.89836" lon="5.87573">
        <ele>887.40002441406</ele>
        <time>2014-02-20T15:00:48.000Z</time>
      </trkpt>
      <trkpt lat="45.89835" lon="5.87577">
        <ele>886.40002441406</ele>
        <time>2014-02-20T15:00:53.000Z</time>
      </trkpt>
      <trkpt lat="45.89833" lon="5.87579">
        <ele>886.40002441406</ele>
        <time>2014-02-20T15:00:58.000Z</time>
      </trkpt>
      <trkpt lat="45.89831" lon="5.87583">
        <ele>885.79998779297</ele>
        <time>2014-02-20T15:01:01.000Z</time>
      </trkpt>
      <trkpt lat="45.89829" lon="5.87583">
        <ele>886.40002441406</ele>
        <time>2014-02-20T15:01:06.000Z</time>
      </trkpt>
      <trkpt lat="45.89828" lon="5.87584">
        <ele>886.59997558594</ele>
        <time>2014-02-20T15:01:10.000Z</time>
      </trkpt>
      <trkpt lat="45.89825" lon="5.87583">
        <ele>887.40002441406</ele>
        <time>2014-02-20T15:01:15.000Z</time>
      </trkpt>
      <trkpt lat="45.89825" lon="5.87583">
        <ele>887.79998779297</ele>
        <time>2014-02-20T15:01:19.000Z</time>
      </trkpt>
      <trkpt lat="45.89824" lon="5.87582">
        <ele>888.20001220703</ele>
        <time>2014-02-20T15:01:24.000Z</time>
      </trkpt>
      <trkpt lat="45.8982" lon="5.87582">
        <ele>889.40002441406</ele>
        <time>2014-02-20T15:01:31.000Z</time>
      </trkpt>
      <trkpt lat="45.89818" lon="5.87578">
        <ele>891.40002441406</ele>
        <time>2014-02-20T15:01:37.000Z</time>
      </trkpt>
      <trkpt lat="45.89816" lon="5.87577">
        <ele>892.20001220703</ele>
        <time>2014-02-20T15:01:43.000Z</time>
      </trkpt>
      <trkpt lat="45.89814" lon="5.87577">
        <ele>892.79998779297</ele>
        <time>2014-02-20T15:01:47.000Z</time>
      </trkpt>
      <trkpt lat="45.89811" lon="5.87577">
        <ele>893.40002441406</ele>
        <time>2014-02-20T15:01:51.000Z</time>
      </trkpt>
      <trkpt lat="45.89807" lon="5.87575">
        <ele>895.40002441406</ele>
        <time>2014-02-20T15:01:58.000Z</time>
      </trkpt>
      <trkpt lat="45.89804" lon="5.87575">
        <ele>896.40002441406</ele>
        <time>2014-02-20T15:02:05.000Z</time>
      </trkpt>
      <trkpt lat="45.89802" lon="5.87573">
        <ele>897.40002441406</ele>
        <time>2014-02-20T15:02:10.000Z</time>
      </trkpt>
      <trkpt lat="45.89801" lon="5.8757">
        <ele>898.79998779297</ele>
        <time>2014-02-20T15:02:14.000Z</time>
      </trkpt>
      <trkpt lat="45.89799" lon="5.87567">
        <ele>900</ele>
        <time>2014-02-20T15:02:19.000Z</time>
      </trkpt>
      <trkpt lat="45.89797" lon="5.87567">
        <ele>900.79998779297</ele>
        <time>2014-02-20T15:02:24.000Z</time>
      </trkpt>
      <trkpt lat="45.89795" lon="5.87567">
        <ele>901.40002441406</ele>
        <time>2014-02-20T15:02:28.000Z</time>
      </trkpt>
      <trkpt lat="45.89791" lon="5.87565">
        <ele>902.79998779297</ele>
        <time>2014-02-20T15:02:34.000Z</time>
      </trkpt>
      <trkpt lat="45.89786" lon="5.87569">
        <ele>903.40002441406</ele>
        <time>2014-02-20T15:02:39.000Z</time>
      </trkpt>
      <trkpt lat="45.89777" lon="5.87569">
        <ele>905.79998779297</ele>
        <time>2014-02-20T15:02:44.000Z</time>
      </trkpt>
      <trkpt lat="45.8977" lon="5.8757">
        <ele>907.59997558594</ele>
        <time>2014-02-20T15:02:48.000Z</time>
      </trkpt>
      <trkpt lat="45.89761" lon="5.87587">
        <ele>906.40002441406</ele>
        <time>2014-02-20T15:02:55.000Z</time>
      </trkpt>
      <trkpt lat="45.89756" lon="5.87594">
        <ele>907</ele>
        <time>2014-02-20T15:02:58.000Z</time>
      </trkpt>
      <trkpt lat="45.89747" lon="5.87597">
        <ele>908.79998779297</ele>
        <time>2014-02-20T15:03:02.000Z</time>
      </trkpt>
      <trkpt lat="45.89734" lon="5.87599">
        <ele>911.20001220703</ele>
        <time>2014-02-20T15:03:07.000Z</time>
      </trkpt>
      <trkpt lat="45.89727" lon="5.87603">
        <ele>912.20001220703</ele>
        <time>2014-02-20T15:03:11.000Z</time>
      </trkpt>
      <trkpt lat="45.89713" lon="5.8761">
        <ele>913.59997558594</ele>
        <time>2014-02-20T15:03:18.000Z</time>
      </trkpt>
      <trkpt lat="45.897" lon="5.8761">
        <ele>916</ele>
        <time>2014-02-20T15:03:23.000Z</time>
      </trkpt>
      <trkpt lat="45.89694" lon="5.8761">
        <ele>917.20001220703</ele>
        <time>2014-02-20T15:03:26.000Z</time>
      </trkpt>
      <trkpt lat="45.89682" lon="5.87609">
        <ele>919.79998779297</ele>
        <time>2014-02-20T15:03:32.000Z</time>
      </trkpt>
      <trkpt lat="45.89674" lon="5.87607">
        <ele>921.59997558594</ele>
        <time>2014-02-20T15:03:36.000Z</time>
      </trkpt>
      <trkpt lat="45.89664" lon="5.87603">
        <ele>923.79998779297</ele>
        <time>2014-02-20T15:03:41.000Z</time>
      </trkpt>
      <trkpt lat="45.89647" lon="5.87604">
        <ele>923.79998779297</ele>
        <time>2014-02-20T15:03:47.000Z</time>
      </trkpt>
      <trkpt lat="45.89635" lon="5.87616">
        <ele>921</ele>
        <time>2014-02-20T15:03:52.000Z</time>
      </trkpt>
      <trkpt lat="45.89623" lon="5.87623">
        <ele>919.20001220703</ele>
        <time>2014-02-20T15:03:56.000Z</time>
      </trkpt>
      <trkpt lat="45.89615" lon="5.87621">
        <ele>919.79998779297</ele>
        <time>2014-02-20T15:04:00.000Z</time>
      </trkpt>
      <trkpt lat="45.8961" lon="5.87615">
        <ele>921.40002441406</ele>
        <time>2014-02-20T15:04:05.000Z</time>
      </trkpt>
      <trkpt lat="45.89609" lon="5.87613">
        <ele>921.79998779297</ele>
        <time>2014-02-20T15:04:06.000Z</time>
      </trkpt>
      <trkpt lat="45.89606" lon="5.87614">
        <ele>921.59997558594</ele>
        <time>2014-02-20T15:04:11.000Z</time>
      </trkpt>
      <trkpt lat="45.89607" lon="5.87613">
        <ele>922</ele>
        <time>2014-02-20T15:04:24.000Z</time>
      </trkpt>
      <trkpt lat="45.89602" lon="5.87612">
        <ele>922.20001220703</ele>
        <time>2014-02-20T15:04:59.000Z</time>
      </trkpt>
      <trkpt lat="45.89599" lon="5.8761">
        <ele>923</ele>
        <time>2014-02-20T15:05:05.000Z</time>
      </trkpt>
      <trkpt lat="45.89592" lon="5.87607">
        <ele>923.79998779297</ele>
        <time>2014-02-20T15:05:13.000Z</time>
      </trkpt>
      <trkpt lat="45.89587" lon="5.87608">
        <ele>923.59997558594</ele>
        <time>2014-02-20T15:05:17.000Z</time>
      </trkpt>
      <trkpt lat="45.89586" lon="5.87608">
        <ele>923.59997558594</ele>
        <time>2014-02-20T15:05:18.000Z</time>
      </trkpt>
      <trkpt lat="45.8958" lon="5.87608">
        <ele>923.40002441406</ele>
        <time>2014-02-20T15:05:24.000Z</time>
      </trkpt>
      <trkpt lat="45.89575" lon="5.87609">
        <ele>923</ele>
        <time>2014-02-20T15:05:28.000Z</time>
      </trkpt>
      <trkpt lat="45.89572" lon="5.87609">
        <ele>922.79998779297</ele>
        <time>2014-02-20T15:05:31.000Z</time>
      </trkpt>
      <trkpt lat="45.89565" lon="5.87609">
        <ele>923</ele>
        <time>2014-02-20T15:05:37.000Z</time>
      </trkpt>
      <trkpt lat="45.8956" lon="5.87608">
        <ele>923</ele>
        <time>2014-02-20T15:05:40.000Z</time>
      </trkpt>
      <trkpt lat="45.89551" lon="5.87609">
        <ele>922.40002441406</ele>
        <time>2014-02-20T15:05:46.000Z</time>
      </trkpt>
      <trkpt lat="45.89545" lon="5.87609">
        <ele>922.40002441406</ele>
        <time>2014-02-20T15:05:51.000Z</time>
      </trkpt>
      <trkpt lat="45.89541" lon="5.87609">
        <ele>922.40002441406</ele>
        <time>2014-02-20T15:05:55.000Z</time>
      </trkpt>
      <trkpt lat="45.89532" lon="5.8761">
        <ele>921.79998779297</ele>
        <time>2014-02-20T15:06:03.000Z</time>
      </trkpt>
      <trkpt lat="45.8952" lon="5.87612">
        <ele>921</ele>
        <time>2014-02-20T15:06:08.000Z</time>
      </trkpt>
      <trkpt lat="45.89506" lon="5.87614">
        <ele>920</ele>
        <time>2014-02-20T15:06:13.000Z</time>
      </trkpt>
      <trkpt lat="45.89493" lon="5.87616">
        <ele>918.79998779297</ele>
        <time>2014-02-20T15:06:18.000Z</time>
      </trkpt>
      <trkpt lat="45.89491" lon="5.87616">
        <ele>918.40002441406</ele>
        <time>2014-02-20T15:06:19.000Z</time>
      </trkpt>
      <trkpt lat="45.89478" lon="5.87612">
        <ele>918.59997558594</ele>
        <time>2014-02-20T15:06:24.000Z</time>
      </trkpt>
      <trkpt lat="45.89461" lon="5.87599">
        <ele>921</ele>
        <time>2014-02-20T15:06:30.000Z</time>
      </trkpt>
      <trkpt lat="45.89447" lon="5.87595">
        <ele>920.79998779297</ele>
        <time>2014-02-20T15:06:35.000Z</time>
      </trkpt>
      <trkpt lat="45.89436" lon="5.87594">
        <ele>920</ele>
        <time>2014-02-20T15:06:39.000Z</time>
      </trkpt>
      <trkpt lat="45.89425" lon="5.87589">
        <ele>920.20001220703</ele>
        <time>2014-02-20T15:06:43.000Z</time>
      </trkpt>
      <trkpt lat="45.89417" lon="5.87583">
        <ele>921</ele>
        <time>2014-02-20T15:06:47.000Z</time>
      </trkpt>
      <trkpt lat="45.89408" lon="5.87572">
        <ele>923.40002441406</ele>
        <time>2014-02-20T15:06:52.000Z</time>
      </trkpt>
      <trkpt lat="45.89406" lon="5.87571">
        <ele>923.59997558594</ele>
        <time>2014-02-20T15:06:53.000Z</time>
      </trkpt>
      <trkpt lat="45.89397" lon="5.8755">
        <ele>927.40002441406</ele>
        <time>2014-02-20T15:07:01.000Z</time>
      </trkpt>
      <trkpt lat="45.8939" lon="5.8754">
        <ele>928.79998779297</ele>
        <time>2014-02-20T15:07:06.000Z</time>
      </trkpt>
      <trkpt lat="45.89387" lon="5.87536">
        <ele>929.40002441406</ele>
        <time>2014-02-20T15:07:08.000Z</time>
      </trkpt>
      <trkpt lat="45.89384" lon="5.87529">
        <ele>930.40002441406</ele>
        <time>2014-02-20T15:07:13.000Z</time>
      </trkpt>
      <trkpt lat="45.89381" lon="5.87525">
        <ele>930.79998779297</ele>
        <time>2014-02-20T15:07:17.000Z</time>
      </trkpt>
      <trkpt lat="45.89378" lon="5.87514">
        <ele>932.20001220703</ele>
        <time>2014-02-20T15:07:24.000Z</time>
      </trkpt>
      <trkpt lat="45.89378" lon="5.87512">
        <ele>932.59997558594</ele>
        <time>2014-02-20T15:07:25.000Z</time>
      </trkpt>
      <trkpt lat="45.89377" lon="5.87507">
        <ele>933.20001220703</ele>
        <time>2014-02-20T15:07:28.000Z</time>
      </trkpt>
      <trkpt lat="45.89376" lon="5.87497">
        <ele>934.20001220703</ele>
        <time>2014-02-20T15:07:33.000Z</time>
      </trkpt>
      <trkpt lat="45.89373" lon="5.87488">
        <ele>934</ele>
        <time>2014-02-20T15:07:40.000Z</time>
      </trkpt>
      <trkpt lat="45.89372" lon="5.87486">
        <ele>934</ele>
        <time>2014-02-20T15:07:42.000Z</time>
      </trkpt>
      <trkpt lat="45.8937" lon="5.87478">
        <ele>934</ele>
        <time>2014-02-20T15:07:50.000Z</time>
      </trkpt>
      <trkpt lat="45.89366" lon="5.87469">
        <ele>934</ele>
        <time>2014-02-20T15:07:54.000Z</time>
      </trkpt>
      <trkpt lat="45.89357" lon="5.87453">
        <ele>933.59997558594</ele>
        <time>2014-02-20T15:07:59.000Z</time>
      </trkpt>
      <trkpt lat="45.89351" lon="5.8743">
        <ele>933.79998779297</ele>
        <time>2014-02-20T15:08:05.000Z</time>
      </trkpt>
      <trkpt lat="45.89347" lon="5.87418">
        <ele>934</ele>
        <time>2014-02-20T15:08:09.000Z</time>
      </trkpt>
      <trkpt lat="45.89341" lon="5.87407">
        <ele>935.59997558594</ele>
        <time>2014-02-20T15:08:13.000Z</time>
      </trkpt>
      <trkpt lat="45.89336" lon="5.874">
        <ele>936.79998779297</ele>
        <time>2014-02-20T15:08:17.000Z</time>
      </trkpt>
      <trkpt lat="45.89329" lon="5.87395">
        <ele>938.20001220703</ele>
        <time>2014-02-20T15:08:24.000Z</time>
      </trkpt>
      <trkpt lat="45.89329" lon="5.87395">
        <ele>938.20001220703</ele>
        <time>2014-02-20T15:08:25.000Z</time>
      </trkpt>
      <trkpt lat="45.89328" lon="5.87398">
        <ele>937.59997558594</ele>
        <time>2014-02-20T15:08:35.000Z</time>
      </trkpt>
      <trkpt lat="45.89328" lon="5.874">
        <ele>937.20001220703</ele>
        <time>2014-02-20T15:08:55.000Z</time>
      </trkpt>
      <trkpt lat="45.89326" lon="5.87393">
        <ele>938.79998779297</ele>
        <time>2014-02-20T15:09:03.000Z</time>
      </trkpt>
      <trkpt lat="45.89323" lon="5.87389">
        <ele>940</ele>
        <time>2014-02-20T15:09:08.000Z</time>
      </trkpt>
      <trkpt lat="45.89319" lon="5.87383">
        <ele>941.40002441406</ele>
        <time>2014-02-20T15:09:17.000Z</time>
      </trkpt>
      <trkpt lat="45.89318" lon="5.87379">
        <ele>942.20001220703</ele>
        <time>2014-02-20T15:09:26.000Z</time>
      </trkpt>
      <trkpt lat="45.89317" lon="5.87377">
        <ele>942.79998779297</ele>
        <time>2014-02-20T15:09:33.000Z</time>
      </trkpt>
      <trkpt lat="45.89314" lon="5.87375">
        <ele>943.40002441406</ele>
        <time>2014-02-20T15:09:37.000Z</time>
      </trkpt>
      <trkpt lat="45.89315" lon="5.87373">
        <ele>943.79998779297</ele>
        <time>2014-02-20T15:09:43.000Z</time>
      </trkpt>
      <trkpt lat="45.89313" lon="5.87372">
        <ele>944.20001220703</ele>
        <time>2014-02-20T15:09:49.000Z</time>
      </trkpt>
      <trkpt lat="45.89311" lon="5.8737">
        <ele>944.59997558594</ele>
        <time>2014-02-20T15:09:53.000Z</time>
      </trkpt>
      <trkpt lat="45.89309" lon="5.87369">
        <ele>945</ele>
        <time>2014-02-20T15:09:57.000Z</time>
      </trkpt>
      <trkpt lat="45.89307" lon="5.87366">
        <ele>945.79998779297</ele>
        <time>2014-02-20T15:10:03.000Z</time>
      </trkpt>
      <trkpt lat="45.89304" lon="5.87362">
        <ele>946.79998779297</ele>
        <time>2014-02-20T15:10:08.000Z</time>
      </trkpt>
      <trkpt lat="45.89301" lon="5.8736">
        <ele>947.40002441406</ele>
        <time>2014-02-20T15:10:13.000Z</time>
      </trkpt>
      <trkpt lat="45.893" lon="5.87359">
        <ele>947.59997558594</ele>
        <time>2014-02-20T15:10:18.000Z</time>
      </trkpt>
      <trkpt lat="45.89299" lon="5.87356">
        <ele>948.40002441406</ele>
        <time>2014-02-20T15:10:22.000Z</time>
      </trkpt>
      <trkpt lat="45.89298" lon="5.87351">
        <ele>949.40002441406</ele>
        <time>2014-02-20T15:10:28.000Z</time>
      </trkpt>
      <trkpt lat="45.89298" lon="5.87348">
        <ele>950</ele>
        <time>2014-02-20T15:10:33.000Z</time>
      </trkpt>
      <trkpt lat="45.89297" lon="5.87346">
        <ele>950.59997558594</ele>
        <time>2014-02-20T15:10:39.000Z</time>
      </trkpt>
      <trkpt lat="45.89295" lon="5.87343">
        <ele>951.20001220703</ele>
        <time>2014-02-20T15:10:46.000Z</time>
      </trkpt>
      <trkpt lat="45.89296" lon="5.8734">
        <ele>951.79998779297</ele>
        <time>2014-02-20T15:10:51.000Z</time>
      </trkpt>
      <trkpt lat="45.89293" lon="5.87337">
        <ele>952.59997558594</ele>
        <time>2014-02-20T15:10:57.000Z</time>
      </trkpt>
      <trkpt lat="45.89293" lon="5.87333">
        <ele>953.59997558594</ele>
        <time>2014-02-20T15:11:02.000Z</time>
      </trkpt>
      <trkpt lat="45.89293" lon="5.8733">
        <ele>954.40002441406</ele>
        <time>2014-02-20T15:11:07.000Z</time>
      </trkpt>
      <trkpt lat="45.89292" lon="5.87328">
        <ele>955</ele>
        <time>2014-02-20T15:11:12.000Z</time>
      </trkpt>
      <trkpt lat="45.89291" lon="5.87325">
        <ele>956</ele>
        <time>2014-02-20T15:11:17.000Z</time>
      </trkpt>
      <trkpt lat="45.8929" lon="5.87321">
        <ele>957</ele>
        <time>2014-02-20T15:11:22.000Z</time>
      </trkpt>
      <trkpt lat="45.89289" lon="5.87316">
        <ele>958.59997558594</ele>
        <time>2014-02-20T15:11:29.000Z</time>
      </trkpt>
      <trkpt lat="45.89288" lon="5.87312">
        <ele>959.59997558594</ele>
        <time>2014-02-20T15:11:34.000Z</time>
      </trkpt>
      <trkpt lat="45.89286" lon="5.87311">
        <ele>959.79998779297</ele>
        <time>2014-02-20T15:11:39.000Z</time>
      </trkpt>
      <trkpt lat="45.89286" lon="5.87308">
        <ele>960.59997558594</ele>
        <time>2014-02-20T15:11:43.000Z</time>
      </trkpt>
      <trkpt lat="45.89286" lon="5.87304">
        <ele>961.79998779297</ele>
        <time>2014-02-20T15:11:48.000Z</time>
      </trkpt>
      <trkpt lat="45.89286" lon="5.87298">
        <ele>963.59997558594</ele>
        <time>2014-02-20T15:11:54.000Z</time>
      </trkpt>
      <trkpt lat="45.89287" lon="5.87293">
        <ele>965</ele>
        <time>2014-02-20T15:12:00.000Z</time>
      </trkpt>
      <trkpt lat="45.89286" lon="5.87288">
        <ele>966.20001220703</ele>
        <time>2014-02-20T15:12:08.000Z</time>
      </trkpt>
      <trkpt lat="45.89285" lon="5.87284">
        <ele>967.59997558594</ele>
        <time>2014-02-20T15:12:15.000Z</time>
      </trkpt>
      <trkpt lat="45.89287" lon="5.87278">
        <ele>969.20001220703</ele>
        <time>2014-02-20T15:12:20.000Z</time>
      </trkpt>
      <trkpt lat="45.89286" lon="5.87275">
        <ele>970</ele>
        <time>2014-02-20T15:12:25.000Z</time>
      </trkpt>
      <trkpt lat="45.89284" lon="5.87272">
        <ele>970.79998779297</ele>
        <time>2014-02-20T15:12:29.000Z</time>
      </trkpt>
      <trkpt lat="45.89285" lon="5.87269">
        <ele>971.79998779297</ele>
        <time>2014-02-20T15:12:34.000Z</time>
      </trkpt>
      <trkpt lat="45.89286" lon="5.87265">
        <ele>973</ele>
        <time>2014-02-20T15:12:39.000Z</time>
      </trkpt>
      <trkpt lat="45.89286" lon="5.8726">
        <ele>974.40002441406</ele>
        <time>2014-02-20T15:12:44.000Z</time>
      </trkpt>
      <trkpt lat="45.89286" lon="5.87254">
        <ele>975.79998779297</ele>
        <time>2014-02-20T15:12:51.000Z</time>
      </trkpt>
      <trkpt lat="45.89285" lon="5.87252">
        <ele>976.59997558594</ele>
        <time>2014-02-20T15:13:02.000Z</time>
      </trkpt>
      <trkpt lat="45.89281" lon="5.8725">
        <ele>977</ele>
        <time>2014-02-20T15:13:16.000Z</time>
      </trkpt>
      <trkpt lat="45.89278" lon="5.87251">
        <ele>976.59997558594</ele>
        <time>2014-02-20T15:13:23.000Z</time>
      </trkpt>
      <trkpt lat="45.89277" lon="5.87251">
        <ele>976.79998779297</ele>
        <time>2014-02-20T15:13:28.000Z</time>
      </trkpt>
      <trkpt lat="45.89277" lon="5.87248">
        <ele>977.59997558594</ele>
        <time>2014-02-20T15:13:33.000Z</time>
      </trkpt>
      <trkpt lat="45.89276" lon="5.87246">
        <ele>978.20001220703</ele>
        <time>2014-02-20T15:13:37.000Z</time>
      </trkpt>
      <trkpt lat="45.89273" lon="5.87245">
        <ele>978.59997558594</ele>
        <time>2014-02-20T15:13:43.000Z</time>
      </trkpt>
      <trkpt lat="45.89273" lon="5.87241">
        <ele>980</ele>
        <time>2014-02-20T15:13:47.000Z</time>
      </trkpt>
      <trkpt lat="45.89273" lon="5.87236">
        <ele>981.40002441406</ele>
        <time>2014-02-20T15:13:54.000Z</time>
      </trkpt>
      <trkpt lat="45.89272" lon="5.87233">
        <ele>982.40002441406</ele>
        <time>2014-02-20T15:13:59.000Z</time>
      </trkpt>
      <trkpt lat="45.89272" lon="5.87233">
        <ele>982.59997558594</ele>
        <time>2014-02-20T15:14:07.000Z</time>
      </trkpt>
      <trkpt lat="45.89271" lon="5.87237">
        <ele>981.20001220703</ele>
        <time>2014-02-20T15:14:19.000Z</time>
      </trkpt>
      <trkpt lat="45.89266" lon="5.87236">
        <ele>981.40002441406</ele>
        <time>2014-02-20T15:15:06.000Z</time>
      </trkpt>
      <trkpt lat="45.89266" lon="5.8723">
        <ele>983.40002441406</ele>
        <time>2014-02-20T15:15:12.000Z</time>
      </trkpt>
      <trkpt lat="45.89266" lon="5.87226">
        <ele>984.79998779297</ele>
        <time>2014-02-20T15:15:19.000Z</time>
      </trkpt>
      <trkpt lat="45.89264" lon="5.87222">
        <ele>986</ele>
        <time>2014-02-20T15:15:26.000Z</time>
      </trkpt>
      <trkpt lat="45.89262" lon="5.87219">
        <ele>987</ele>
        <time>2014-02-20T15:15:31.000Z</time>
      </trkpt>
      <trkpt lat="45.89261" lon="5.87215">
        <ele>988.20001220703</ele>
        <time>2014-02-20T15:15:36.000Z</time>
      </trkpt>
      <trkpt lat="45.89258" lon="5.87213">
        <ele>989</ele>
        <time>2014-02-20T15:15:42.000Z</time>
      </trkpt>
      <trkpt lat="45.89259" lon="5.87209">
        <ele>990.20001220703</ele>
        <time>2014-02-20T15:15:48.000Z</time>
      </trkpt>
      <trkpt lat="45.8926" lon="5.87209">
        <ele>990.20001220703</ele>
        <time>2014-02-20T15:15:54.000Z</time>
      </trkpt>
      <trkpt lat="45.89259" lon="5.87204">
        <ele>991.79998779297</ele>
        <time>2014-02-20T15:16:02.000Z</time>
      </trkpt>
      <trkpt lat="45.89258" lon="5.872">
        <ele>993.20001220703</ele>
        <time>2014-02-20T15:16:08.000Z</time>
      </trkpt>
      <trkpt lat="45.89258" lon="5.87197">
        <ele>994</ele>
        <time>2014-02-20T15:16:14.000Z</time>
      </trkpt>
      <trkpt lat="45.89258" lon="5.87195">
        <ele>994.79998779297</ele>
        <time>2014-02-20T15:16:18.000Z</time>
      </trkpt>
      <trkpt lat="45.89259" lon="5.87189">
        <ele>996.59997558594</ele>
        <time>2014-02-20T15:16:30.000Z</time>
      </trkpt>
      <trkpt lat="45.8926" lon="5.87188">
        <ele>997.20001220703</ele>
        <time>2014-02-20T15:16:36.000Z</time>
      </trkpt>
      <trkpt lat="45.89259" lon="5.87185">
        <ele>998</ele>
        <time>2014-02-20T15:16:42.000Z</time>
      </trkpt>
      <trkpt lat="45.89259" lon="5.8718">
        <ele>999.40002441406</ele>
        <time>2014-02-20T15:16:48.000Z</time>
      </trkpt>
      <trkpt lat="45.89261" lon="5.87176">
        <ele>1000.799987793</ele>
        <time>2014-02-20T15:16:52.000Z</time>
      </trkpt>
      <trkpt lat="45.89262" lon="5.87172">
        <ele>1002.200012207</ele>
        <time>2014-02-20T15:16:56.000Z</time>
      </trkpt>
      <trkpt lat="45.89259" lon="5.8717">
        <ele>1002.799987793</ele>
        <time>2014-02-20T15:17:01.000Z</time>
      </trkpt>
      <trkpt lat="45.89258" lon="5.87167">
        <ele>1003.799987793</ele>
        <time>2014-02-20T15:17:05.000Z</time>
      </trkpt>
      <trkpt lat="45.89257" lon="5.87163">
        <ele>1004.799987793</ele>
        <time>2014-02-20T15:17:11.000Z</time>
      </trkpt>
      <trkpt lat="45.89255" lon="5.87161">
        <ele>1005.200012207</ele>
        <time>2014-02-20T15:17:15.000Z</time>
      </trkpt>
      <trkpt lat="45.89252" lon="5.87158">
        <ele>1006</ele>
        <time>2014-02-20T15:17:25.000Z</time>
      </trkpt>
      <trkpt lat="45.89249" lon="5.87155">
        <ele>1006.799987793</ele>
        <time>2014-02-20T15:17:32.000Z</time>
      </trkpt>
      <trkpt lat="45.89248" lon="5.87149">
        <ele>1008.200012207</ele>
        <time>2014-02-20T15:17:38.000Z</time>
      </trkpt>
      <trkpt lat="45.89248" lon="5.87145">
        <ele>1009.200012207</ele>
        <time>2014-02-20T15:17:45.000Z</time>
      </trkpt>
      <trkpt lat="45.89246" lon="5.87141">
        <ele>1010.200012207</ele>
        <time>2014-02-20T15:17:51.000Z</time>
      </trkpt>
      <trkpt lat="45.89242" lon="5.87138">
        <ele>1010.799987793</ele>
        <time>2014-02-20T15:17:56.000Z</time>
      </trkpt>
      <trkpt lat="45.89241" lon="5.87135">
        <ele>1011.5999755859</ele>
        <time>2014-02-20T15:18:01.000Z</time>
      </trkpt>
      <trkpt lat="45.89241" lon="5.87132">
        <ele>1012.4000244141</ele>
        <time>2014-02-20T15:18:08.000Z</time>
      </trkpt>
      <trkpt lat="45.89242" lon="5.87128">
        <ele>1013.200012207</ele>
        <time>2014-02-20T15:18:13.000Z</time>
      </trkpt>
      <trkpt lat="45.89242" lon="5.87125">
        <ele>1013.799987793</ele>
        <time>2014-02-20T15:18:20.000Z</time>
      </trkpt>
      <trkpt lat="45.89243" lon="5.87123">
        <ele>1014.4000244141</ele>
        <time>2014-02-20T15:18:24.000Z</time>
      </trkpt>
      <trkpt lat="45.89244" lon="5.87121">
        <ele>1014.799987793</ele>
        <time>2014-02-20T15:18:29.000Z</time>
      </trkpt>
      <trkpt lat="45.89245" lon="5.87118">
        <ele>1015.5999755859</ele>
        <time>2014-02-20T15:18:35.000Z</time>
      </trkpt>
      <trkpt lat="45.89245" lon="5.87114">
        <ele>1016.4000244141</ele>
        <time>2014-02-20T15:18:39.000Z</time>
      </trkpt>
      <trkpt lat="45.89244" lon="5.87111">
        <ele>1017.4000244141</ele>
        <time>2014-02-20T15:18:44.000Z</time>
      </trkpt>
      <trkpt lat="45.89245" lon="5.87107">
        <ele>1018.4000244141</ele>
        <time>2014-02-20T15:18:49.000Z</time>
      </trkpt>
      <trkpt lat="45.89245" lon="5.87105">
        <ele>1018.799987793</ele>
        <time>2014-02-20T15:18:55.000Z</time>
      </trkpt>
      <trkpt lat="45.89244" lon="5.87098">
        <ele>1020.200012207</ele>
        <time>2014-02-20T15:19:00.000Z</time>
      </trkpt>
      <trkpt lat="45.89242" lon="5.87092">
        <ele>1021.799987793</ele>
        <time>2014-02-20T15:19:05.000Z</time>
      </trkpt>
      <trkpt lat="45.89241" lon="5.87087">
        <ele>1022.799987793</ele>
        <time>2014-02-20T15:19:11.000Z</time>
      </trkpt>
      <trkpt lat="45.89242" lon="5.87084">
        <ele>1023.4000244141</ele>
        <time>2014-02-20T15:19:17.000Z</time>
      </trkpt>
      <trkpt lat="45.89241" lon="5.87081">
        <ele>1024.1999511719</ele>
        <time>2014-02-20T15:19:23.000Z</time>
      </trkpt>
      <trkpt lat="45.89239" lon="5.87079">
        <ele>1024.4000244141</ele>
        <time>2014-02-20T15:19:28.000Z</time>
      </trkpt>
      <trkpt lat="45.89238" lon="5.87075">
        <ele>1025.1999511719</ele>
        <time>2014-02-20T15:19:34.000Z</time>
      </trkpt>
      <trkpt lat="45.89238" lon="5.87071">
        <ele>1026</ele>
        <time>2014-02-20T15:19:41.000Z</time>
      </trkpt>
      <trkpt lat="45.89236" lon="5.87067">
        <ele>1026.5999755859</ele>
        <time>2014-02-20T15:19:49.000Z</time>
      </trkpt>
      <trkpt lat="45.89235" lon="5.87065">
        <ele>1027</ele>
        <time>2014-02-20T15:19:53.000Z</time>
      </trkpt>
      <trkpt lat="45.89232" lon="5.87063">
        <ele>1027.1999511719</ele>
        <time>2014-02-20T15:20:07.000Z</time>
      </trkpt>
      <trkpt lat="45.89231" lon="5.8706">
        <ele>1027.8000488281</ele>
        <time>2014-02-20T15:20:13.000Z</time>
      </trkpt>
      <trkpt lat="45.8923" lon="5.87057">
        <ele>1028.1999511719</ele>
        <time>2014-02-20T15:20:18.000Z</time>
      </trkpt>
      <trkpt lat="45.89231" lon="5.87052">
        <ele>1029.1999511719</ele>
        <time>2014-02-20T15:20:24.000Z</time>
      </trkpt>
      <trkpt lat="45.89231" lon="5.87048">
        <ele>1030</ele>
        <time>2014-02-20T15:20:30.000Z</time>
      </trkpt>
      <trkpt lat="45.89232" lon="5.87046">
        <ele>1030.4000244141</ele>
        <time>2014-02-20T15:20:36.000Z</time>
      </trkpt>
      <trkpt lat="45.8923" lon="5.87043">
        <ele>1031</ele>
        <time>2014-02-20T15:20:43.000Z</time>
      </trkpt>
      <trkpt lat="45.89232" lon="5.87039">
        <ele>1031.8000488281</ele>
        <time>2014-02-20T15:20:48.000Z</time>
      </trkpt>
      <trkpt lat="45.89235" lon="5.87035">
        <ele>1032.5999755859</ele>
        <time>2014-02-20T15:20:54.000Z</time>
      </trkpt>
      <trkpt lat="45.89235" lon="5.87031">
        <ele>1033.4000244141</ele>
        <time>2014-02-20T15:20:59.000Z</time>
      </trkpt>
      <trkpt lat="45.89233" lon="5.87024">
        <ele>1034.5999755859</ele>
        <time>2014-02-20T15:21:05.000Z</time>
      </trkpt>
      <trkpt lat="45.8923" lon="5.87019">
        <ele>1035.5999755859</ele>
        <time>2014-02-20T15:21:11.000Z</time>
      </trkpt>
      <trkpt lat="45.89229" lon="5.87013">
        <ele>1036.4000244141</ele>
        <time>2014-02-20T15:21:17.000Z</time>
      </trkpt>
      <trkpt lat="45.89227" lon="5.87011">
        <ele>1037</ele>
        <time>2014-02-20T15:21:21.000Z</time>
      </trkpt>
      <trkpt lat="45.89227" lon="5.87005">
        <ele>1038</ele>
        <time>2014-02-20T15:21:27.000Z</time>
      </trkpt>
      <trkpt lat="45.89226" lon="5.87">
        <ele>1038.8000488281</ele>
        <time>2014-02-20T15:21:32.000Z</time>
      </trkpt>
      <trkpt lat="45.89226" lon="5.86996">
        <ele>1039</ele>
        <time>2014-02-20T15:21:38.000Z</time>
      </trkpt>
      <trkpt lat="45.89225" lon="5.8699">
        <ele>1039.1999511719</ele>
        <time>2014-02-20T15:21:45.000Z</time>
      </trkpt>
      <trkpt lat="45.89224" lon="5.86985">
        <ele>1039.4000244141</ele>
        <time>2014-02-20T15:21:50.000Z</time>
      </trkpt>
      <trkpt lat="45.89225" lon="5.8698">
        <ele>1039.8000488281</ele>
        <time>2014-02-20T15:21:55.000Z</time>
      </trkpt>
      <trkpt lat="45.89224" lon="5.86973">
        <ele>1040</ele>
        <time>2014-02-20T15:22:00.000Z</time>
      </trkpt>
      <trkpt lat="45.89225" lon="5.86967">
        <ele>1040.4000244141</ele>
        <time>2014-02-20T15:22:05.000Z</time>
      </trkpt>
      <trkpt lat="45.89221" lon="5.86953">
        <ele>1040.8000488281</ele>
        <time>2014-02-20T15:22:09.000Z</time>
      </trkpt>
      <trkpt lat="45.89219" lon="5.86949">
        <ele>1041.1999511719</ele>
        <time>2014-02-20T15:22:13.000Z</time>
      </trkpt>
      <trkpt lat="45.89219" lon="5.86946">
        <ele>1041.1999511719</ele>
        <time>2014-02-20T15:22:16.000Z</time>
      </trkpt>
      <trkpt lat="45.89221" lon="5.86941">
        <ele>1041.4000244141</ele>
        <time>2014-02-20T15:22:21.000Z</time>
      </trkpt>
      <trkpt lat="45.8922" lon="5.86936">
        <ele>1041.8000488281</ele>
        <time>2014-02-20T15:22:25.000Z</time>
      </trkpt>
      <trkpt lat="45.89218" lon="5.86931">
        <ele>1042</ele>
        <time>2014-02-20T15:22:29.000Z</time>
      </trkpt>
      <trkpt lat="45.89217" lon="5.86926">
        <ele>1042.4000244141</ele>
        <time>2014-02-20T15:22:34.000Z</time>
      </trkpt>
      <trkpt lat="45.89216" lon="5.8692">
        <ele>1042.5999755859</ele>
        <time>2014-02-20T15:22:39.000Z</time>
      </trkpt>
      <trkpt lat="45.89215" lon="5.86915">
        <ele>1042.8000488281</ele>
        <time>2014-02-20T15:22:44.000Z</time>
      </trkpt>
      <trkpt lat="45.89215" lon="5.86906">
        <ele>1042.5999755859</ele>
        <time>2014-02-20T15:22:49.000Z</time>
      </trkpt>
      <trkpt lat="45.89216" lon="5.86902">
        <ele>1042.5999755859</ele>
        <time>2014-02-20T15:22:52.000Z</time>
      </trkpt>
      <trkpt lat="45.89218" lon="5.86895">
        <ele>1042.4000244141</ele>
        <time>2014-02-20T15:22:58.000Z</time>
      </trkpt>
      <trkpt lat="45.89219" lon="5.86888">
        <ele>1042.1999511719</ele>
        <time>2014-02-20T15:23:03.000Z</time>
      </trkpt>
      <trkpt lat="45.8922" lon="5.86884">
        <ele>1042.1999511719</ele>
        <time>2014-02-20T15:23:06.000Z</time>
      </trkpt>
      <trkpt lat="45.89222" lon="5.8688">
        <ele>1042</ele>
        <time>2014-02-20T15:23:13.000Z</time>
      </trkpt>
      <trkpt lat="45.89221" lon="5.86876">
        <ele>1042</ele>
        <time>2014-02-20T15:23:20.000Z</time>
      </trkpt>
      <trkpt lat="45.89221" lon="5.86868">
        <ele>1041.8000488281</ele>
        <time>2014-02-20T15:23:26.000Z</time>
      </trkpt>
      <trkpt lat="45.89219" lon="5.86864">
        <ele>1041.8000488281</ele>
        <time>2014-02-20T15:23:31.000Z</time>
      </trkpt>
      <trkpt lat="45.89219" lon="5.86859">
        <ele>1041.8000488281</ele>
        <time>2014-02-20T15:23:36.000Z</time>
      </trkpt>
      <trkpt lat="45.89218" lon="5.86855">
        <ele>1041.8000488281</ele>
        <time>2014-02-20T15:23:40.000Z</time>
      </trkpt>
      <trkpt lat="45.89218" lon="5.86848">
        <ele>1041.5999755859</ele>
        <time>2014-02-20T15:23:49.000Z</time>
      </trkpt>
      <trkpt lat="45.89219" lon="5.86846">
        <ele>1041.4000244141</ele>
        <time>2014-02-20T15:23:50.000Z</time>
      </trkpt>
      <trkpt lat="45.89218" lon="5.86841">
        <ele>1041.4000244141</ele>
        <time>2014-02-20T15:23:54.000Z</time>
      </trkpt>
      <trkpt lat="45.89213" lon="5.86835">
        <ele>1041.5999755859</ele>
        <time>2014-02-20T15:23:59.000Z</time>
      </trkpt>
      <trkpt lat="45.8921" lon="5.86824">
        <ele>1041.8000488281</ele>
        <time>2014-02-20T15:24:09.000Z</time>
      </trkpt>
      <trkpt lat="45.89206" lon="5.8682">
        <ele>1042</ele>
        <time>2014-02-20T15:24:14.000Z</time>
      </trkpt>
      <trkpt lat="45.89204" lon="5.86815">
        <ele>1042.1999511719</ele>
        <time>2014-02-20T15:24:18.000Z</time>
      </trkpt>
      <trkpt lat="45.89202" lon="5.86809">
        <ele>1042.1999511719</ele>
        <time>2014-02-20T15:24:25.000Z</time>
      </trkpt>
      <trkpt lat="45.89198" lon="5.86801">
        <ele>1042.1999511719</ele>
        <time>2014-02-20T15:24:30.000Z</time>
      </trkpt>
      <trkpt lat="45.89192" lon="5.86794">
        <ele>1042.1999511719</ele>
        <time>2014-02-20T15:24:34.000Z</time>
      </trkpt>
      <trkpt lat="45.89185" lon="5.86785">
        <ele>1042.1999511719</ele>
        <time>2014-02-20T15:24:39.000Z</time>
      </trkpt>
      <trkpt lat="45.89183" lon="5.86777">
        <ele>1042</ele>
        <time>2014-02-20T15:24:41.000Z</time>
      </trkpt>
      <trkpt lat="45.89178" lon="5.86766">
        <ele>1041.8000488281</ele>
        <time>2014-02-20T15:24:45.000Z</time>
      </trkpt>
      <trkpt lat="45.89173" lon="5.86764">
        <ele>1041.5999755859</ele>
        <time>2014-02-20T15:24:49.000Z</time>
      </trkpt>
      <trkpt lat="45.89166" lon="5.86761">
        <ele>1041.5999755859</ele>
        <time>2014-02-20T15:24:54.000Z</time>
      </trkpt>
      <trkpt lat="45.89162" lon="5.8676">
        <ele>1041.4000244141</ele>
        <time>2014-02-20T15:24:59.000Z</time>
      </trkpt>
      <trkpt lat="45.89161" lon="5.8676">
        <ele>1041.4000244141</ele>
        <time>2014-02-20T15:25:00.000Z</time>
      </trkpt>
      <trkpt lat="45.89155" lon="5.86763">
        <ele>1041.4000244141</ele>
        <time>2014-02-20T15:25:06.000Z</time>
      </trkpt>
      <trkpt lat="45.8915" lon="5.86764">
        <ele>1041.4000244141</ele>
        <time>2014-02-20T15:25:11.000Z</time>
      </trkpt>
      <trkpt lat="45.89149" lon="5.86764">
        <ele>1041.4000244141</ele>
        <time>2014-02-20T15:25:12.000Z</time>
      </trkpt>
      <trkpt lat="45.89146" lon="5.86764">
        <ele>1041.4000244141</ele>
        <time>2014-02-20T15:25:15.000Z</time>
      </trkpt>
      <trkpt lat="45.89142" lon="5.86765">
        <ele>1041.4000244141</ele>
        <time>2014-02-20T15:25:21.000Z</time>
      </trkpt>
      <trkpt lat="45.89138" lon="5.86766">
        <ele>1041.1999511719</ele>
        <time>2014-02-20T15:25:27.000Z</time>
      </trkpt>
      <trkpt lat="45.8913" lon="5.86767">
        <ele>1041.1999511719</ele>
        <time>2014-02-20T15:25:35.000Z</time>
      </trkpt>
      <trkpt lat="45.89127" lon="5.86768">
        <ele>1041.1999511719</ele>
        <time>2014-02-20T15:25:38.000Z</time>
      </trkpt>
      <trkpt lat="45.89122" lon="5.86767">
        <ele>1041</ele>
        <time>2014-02-20T15:25:44.000Z</time>
      </trkpt>
      <trkpt lat="45.89121" lon="5.86767">
        <ele>1041</ele>
        <time>2014-02-20T15:25:45.000Z</time>
      </trkpt>
      <trkpt lat="45.89116" lon="5.86769">
        <ele>1041</ele>
        <time>2014-02-20T15:25:49.000Z</time>
      </trkpt>
      <trkpt lat="45.89112" lon="5.86771">
        <ele>1041</ele>
        <time>2014-02-20T15:25:53.000Z</time>
      </trkpt>
      <trkpt lat="45.89103" lon="5.86771">
        <ele>1040.8000488281</ele>
        <time>2014-02-20T15:25:59.000Z</time>
      </trkpt>
      <trkpt lat="45.89097" lon="5.86771">
        <ele>1040.8000488281</ele>
        <time>2014-02-20T15:26:04.000Z</time>
      </trkpt>
      <trkpt lat="45.89093" lon="5.8677">
        <ele>1040.5999755859</ele>
        <time>2014-02-20T15:26:06.000Z</time>
      </trkpt>
      <trkpt lat="45.8908" lon="5.86765">
        <ele>1040</ele>
        <time>2014-02-20T15:26:11.000Z</time>
      </trkpt>
      <trkpt lat="45.8907" lon="5.86759">
        <ele>1038.8000488281</ele>
        <time>2014-02-20T15:26:16.000Z</time>
      </trkpt>
      <trkpt lat="45.89059" lon="5.86754">
        <ele>1037.8000488281</ele>
        <time>2014-02-20T15:26:21.000Z</time>
      </trkpt>
      <trkpt lat="45.89043" lon="5.86754">
        <ele>1036.1999511719</ele>
        <time>2014-02-20T15:26:27.000Z</time>
      </trkpt>
      <trkpt lat="45.89033" lon="5.86756">
        <ele>1035.1999511719</ele>
        <time>2014-02-20T15:26:31.000Z</time>
      </trkpt>
      <trkpt lat="45.89031" lon="5.86756">
        <ele>1035</ele>
        <time>2014-02-20T15:26:32.000Z</time>
      </trkpt>
      <trkpt lat="45.89017" lon="5.86745">
        <ele>1033.8000488281</ele>
        <time>2014-02-20T15:26:37.000Z</time>
      </trkpt>
      <trkpt lat="45.89015" lon="5.86731">
        <ele>1034.1999511719</ele>
        <time>2014-02-20T15:26:41.000Z</time>
      </trkpt>
      <trkpt lat="45.8901" lon="5.8672">
        <ele>1034</ele>
        <time>2014-02-20T15:26:45.000Z</time>
      </trkpt>
      <trkpt lat="45.89007" lon="5.86715">
        <ele>1034</ele>
        <time>2014-02-20T15:26:47.000Z</time>
      </trkpt>
      <trkpt lat="45.88998" lon="5.86694">
        <ele>1033.8000488281</ele>
        <time>2014-02-20T15:26:53.000Z</time>
      </trkpt>
      <trkpt lat="45.88996" lon="5.86692">
        <ele>1033.8000488281</ele>
        <time>2014-02-20T15:26:54.000Z</time>
      </trkpt>
      <trkpt lat="45.88992" lon="5.86674">
        <ele>1034</ele>
        <time>2014-02-20T15:26:59.000Z</time>
      </trkpt>
      <trkpt lat="45.88988" lon="5.86661">
        <ele>1033.8000488281</ele>
        <time>2014-02-20T15:27:03.000Z</time>
      </trkpt>
      <trkpt lat="45.88982" lon="5.86648">
        <ele>1033.1999511719</ele>
        <time>2014-02-20T15:27:08.000Z</time>
      </trkpt>
      <trkpt lat="45.88978" lon="5.86641">
        <ele>1032.5999755859</ele>
        <time>2014-02-20T15:27:14.000Z</time>
      </trkpt>
      <trkpt lat="45.88976" lon="5.86638">
        <ele>1032.4000244141</ele>
        <time>2014-02-20T15:27:20.000Z</time>
      </trkpt>
      <trkpt lat="45.88974" lon="5.86638">
        <ele>1032.1999511719</ele>
        <time>2014-02-20T15:27:29.000Z</time>
      </trkpt>
      <trkpt lat="45.88969" lon="5.86631">
        <ele>1031.4000244141</ele>
        <time>2014-02-20T15:27:35.000Z</time>
      </trkpt>
      <trkpt lat="45.88969" lon="5.86626">
        <ele>1031.4000244141</ele>
        <time>2014-02-20T15:27:38.000Z</time>
      </trkpt>
      <trkpt lat="45.8897" lon="5.86622">
        <ele>1031.5999755859</ele>
        <time>2014-02-20T15:27:45.000Z</time>
      </trkpt>
      <trkpt lat="45.88971" lon="5.86619">
        <ele>1031.5999755859</ele>
        <time>2014-02-20T15:27:51.000Z</time>
      </trkpt>
      <trkpt lat="45.88971" lon="5.8662">
        <ele>1031.5999755859</ele>
        <time>2014-02-20T15:28:01.000Z</time>
      </trkpt>
      <trkpt lat="45.88973" lon="5.86616">
        <ele>1031.8000488281</ele>
        <time>2014-02-20T15:28:09.000Z</time>
      </trkpt>
      <trkpt lat="45.8897" lon="5.86595">
        <ele>1031.1999511719</ele>
        <time>2014-02-20T15:28:15.000Z</time>
      </trkpt>
      <trkpt lat="45.88959" lon="5.86574">
        <ele>1029.1999511719</ele>
        <time>2014-02-20T15:28:21.000Z</time>
      </trkpt>
      <trkpt lat="45.8895" lon="5.86564">
        <ele>1027.1999511719</ele>
        <time>2014-02-20T15:28:25.000Z</time>
      </trkpt>
      <trkpt lat="45.8894" lon="5.86549">
        <ele>1025</ele>
        <time>2014-02-20T15:28:30.000Z</time>
      </trkpt>
      <trkpt lat="45.88933" lon="5.86534">
        <ele>1022.799987793</ele>
        <time>2014-02-20T15:28:35.000Z</time>
      </trkpt>
      <trkpt lat="45.88926" lon="5.86517">
        <ele>1020.200012207</ele>
        <time>2014-02-20T15:28:40.000Z</time>
      </trkpt>
      <trkpt lat="45.8892" lon="5.86505">
        <ele>1018</ele>
        <time>2014-02-20T15:28:44.000Z</time>
      </trkpt>
      <trkpt lat="45.88909" lon="5.86497">
        <ele>1015.799987793</ele>
        <time>2014-02-20T15:28:49.000Z</time>
      </trkpt>
      <trkpt lat="45.88902" lon="5.86497">
        <ele>1015</ele>
        <time>2014-02-20T15:28:53.000Z</time>
      </trkpt>
      <trkpt lat="45.88894" lon="5.86498">
        <ele>1014.4000244141</ele>
        <time>2014-02-20T15:28:58.000Z</time>
      </trkpt>
      <trkpt lat="45.88893" lon="5.86498">
        <ele>1014.4000244141</ele>
        <time>2014-02-20T15:28:59.000Z</time>
      </trkpt>
      <trkpt lat="45.88882" lon="5.86498">
        <ele>1013.4000244141</ele>
        <time>2014-02-20T15:29:06.000Z</time>
      </trkpt>
      <trkpt lat="45.8888" lon="5.86496">
        <ele>1013</ele>
        <time>2014-02-20T15:29:13.000Z</time>
      </trkpt>
      <trkpt lat="45.8888" lon="5.86494">
        <ele>1012.4000244141</ele>
        <time>2014-02-20T15:29:29.000Z</time>
      </trkpt>
      <trkpt lat="45.88879" lon="5.86494">
        <ele>1012.4000244141</ele>
        <time>2014-02-20T15:29:50.000Z</time>
      </trkpt>
      <trkpt lat="45.88879" lon="5.86495">
        <ele>1012.5999755859</ele>
        <time>2014-02-20T15:30:00.000Z</time>
      </trkpt>
      <trkpt lat="45.8888" lon="5.86495">
        <ele>1012.799987793</ele>
        <time>2014-02-20T15:30:23.000Z</time>
      </trkpt>
      <trkpt lat="45.88878" lon="5.86499">
        <ele>1013.200012207</ele>
        <time>2014-02-20T15:31:02.000Z</time>
      </trkpt>
      <trkpt lat="45.88879" lon="5.86496">
        <ele>1012.799987793</ele>
        <time>2014-02-20T15:31:23.000Z</time>
      </trkpt>
      <trkpt lat="45.88879" lon="5.865">
        <ele>1013.4000244141</ele>
        <time>2014-02-20T15:31:31.000Z</time>
      </trkpt>
      <trkpt lat="45.88878" lon="5.86497">
        <ele>1012.799987793</ele>
        <time>2014-02-20T15:31:37.000Z</time>
      </trkpt>
      <trkpt lat="45.88877" lon="5.86497">
        <ele>1012.799987793</ele>
        <time>2014-02-20T15:31:43.000Z</time>
      </trkpt>
      <trkpt lat="45.88878" lon="5.86494">
        <ele>1012.4000244141</ele>
        <time>2014-02-20T15:31:49.000Z</time>
      </trkpt>
      <trkpt lat="45.88878" lon="5.86494">
        <ele>1012.200012207</ele>
        <time>2014-02-20T15:33:01.000Z</time>
      </trkpt>
      <trkpt lat="45.88878" lon="5.86496">
        <ele>1012.5999755859</ele>
        <time>2014-02-20T15:33:02.000Z</time>
      </trkpt>
      <trkpt lat="45.88879" lon="5.86507">
        <ele>1014</ele>
        <time>2014-02-20T15:33:08.000Z</time>
      </trkpt>
      <trkpt lat="45.88879" lon="5.8651">
        <ele>1014.200012207</ele>
        <time>2014-02-20T15:33:10.000Z</time>
      </trkpt>
      <trkpt lat="45.88875" lon="5.86524">
        <ele>1015.200012207</ele>
        <time>2014-02-20T15:33:15.000Z</time>
      </trkpt>
      <trkpt lat="45.88873" lon="5.86527">
        <ele>1015.200012207</ele>
        <time>2014-02-20T15:33:16.000Z</time>
      </trkpt>
      <trkpt lat="45.88862" lon="5.86543">
        <ele>1015.799987793</ele>
        <time>2014-02-20T15:33:22.000Z</time>
      </trkpt>
      <trkpt lat="45.88858" lon="5.86549">
        <ele>1015.799987793</ele>
        <time>2014-02-20T15:33:24.000Z</time>
      </trkpt>
      <trkpt lat="45.88848" lon="5.86547">
        <ele>1014.799987793</ele>
        <time>2014-02-20T15:33:29.000Z</time>
      </trkpt>
      <trkpt lat="45.88842" lon="5.8654">
        <ele>1013.5999755859</ele>
        <time>2014-02-20T15:33:33.000Z</time>
      </trkpt>
      <trkpt lat="45.88835" lon="5.86523">
        <ele>1011.4000244141</ele>
        <time>2014-02-20T15:33:39.000Z</time>
      </trkpt>
      <trkpt lat="45.88833" lon="5.8652">
        <ele>1011</ele>
        <time>2014-02-20T15:33:40.000Z</time>
      </trkpt>
      <trkpt lat="45.88829" lon="5.86512">
        <ele>1010.4000244141</ele>
        <time>2014-02-20T15:33:43.000Z</time>
      </trkpt>
      <trkpt lat="45.88821" lon="5.86501">
        <ele>1009.5999755859</ele>
        <time>2014-02-20T15:33:48.000Z</time>
      </trkpt>
      <trkpt lat="45.88809" lon="5.86488">
        <ele>1007.5999755859</ele>
        <time>2014-02-20T15:33:54.000Z</time>
      </trkpt>
      <trkpt lat="45.88799" lon="5.86472">
        <ele>1004.4000244141</ele>
        <time>2014-02-20T15:33:59.000Z</time>
      </trkpt>
      <trkpt lat="45.88791" lon="5.86464">
        <ele>1002.799987793</ele>
        <time>2014-02-20T15:34:03.000Z</time>
      </trkpt>
      <trkpt lat="45.88781" lon="5.86463">
        <ele>1003</ele>
        <time>2014-02-20T15:34:11.000Z</time>
      </trkpt>
      <trkpt lat="45.88772" lon="5.86467">
        <ele>1004</ele>
        <time>2014-02-20T15:34:18.000Z</time>
      </trkpt>
      <trkpt lat="45.8877" lon="5.86469">
        <ele>1004.4000244141</ele>
        <time>2014-02-20T15:34:26.000Z</time>
      </trkpt>
      <trkpt lat="45.8877" lon="5.86469">
        <ele>1004.5999755859</ele>
        <time>2014-02-20T15:34:41.000Z</time>
      </trkpt>
      <trkpt lat="45.88771" lon="5.86468">
        <ele>1004.4000244141</ele>
        <time>2014-02-20T15:34:59.000Z</time>
      </trkpt>
      <trkpt lat="45.8877" lon="5.86468">
        <ele>1004.4000244141</ele>
        <time>2014-02-20T15:35:09.000Z</time>
      </trkpt>
      <trkpt lat="45.88771" lon="5.86468">
        <ele>1004.4000244141</ele>
        <time>2014-02-20T15:35:16.000Z</time>
      </trkpt>
      <trkpt lat="45.88772" lon="5.86471">
        <ele>1005</ele>
        <time>2014-02-20T15:35:29.000Z</time>
      </trkpt>
      <trkpt lat="45.88774" lon="5.86475">
        <ele>1006</ele>
        <time>2014-02-20T15:35:34.000Z</time>
      </trkpt>
      <trkpt lat="45.88776" lon="5.86484">
        <ele>1008</ele>
        <time>2014-02-20T15:35:41.000Z</time>
      </trkpt>
      <trkpt lat="45.88777" lon="5.8649">
        <ele>1009.200012207</ele>
        <time>2014-02-20T15:35:46.000Z</time>
      </trkpt>
      <trkpt lat="45.88779" lon="5.86493">
        <ele>1010</ele>
        <time>2014-02-20T15:36:10.000Z</time>
      </trkpt>
      <trkpt lat="45.88779" lon="5.86496">
        <ele>1010.5999755859</ele>
        <time>2014-02-20T15:36:12.000Z</time>
      </trkpt>
      <trkpt lat="45.8878" lon="5.8651">
        <ele>1012.4000244141</ele>
        <time>2014-02-20T15:36:17.000Z</time>
      </trkpt>
      <trkpt lat="45.88777" lon="5.86522">
        <ele>1013.5999755859</ele>
        <time>2014-02-20T15:36:21.000Z</time>
      </trkpt>
      <trkpt lat="45.88777" lon="5.86538">
        <ele>1015</ele>
        <time>2014-02-20T15:36:26.000Z</time>
      </trkpt>
      <trkpt lat="45.88778" lon="5.86553">
        <ele>1016.200012207</ele>
        <time>2014-02-20T15:36:30.000Z</time>
      </trkpt>
      <trkpt lat="45.88777" lon="5.86567">
        <ele>1017.5999755859</ele>
        <time>2014-02-20T15:36:36.000Z</time>
      </trkpt>
      <trkpt lat="45.88777" lon="5.86569">
        <ele>1017.799987793</ele>
        <time>2014-02-20T15:36:37.000Z</time>
      </trkpt>
      <trkpt lat="45.88777" lon="5.86573">
        <ele>1018</ele>
        <time>2014-02-20T15:36:40.000Z</time>
      </trkpt>
      <trkpt lat="45.88777" lon="5.8658">
        <ele>1018.799987793</ele>
        <time>2014-02-20T15:36:46.000Z</time>
      </trkpt>
      <trkpt lat="45.88778" lon="5.86587">
        <ele>1019</ele>
        <time>2014-02-20T15:36:52.000Z</time>
      </trkpt>
      <trkpt lat="45.88779" lon="5.86598">
        <ele>1019.200012207</ele>
        <time>2014-02-20T15:37:00.000Z</time>
      </trkpt>
      <trkpt lat="45.88777" lon="5.86608">
        <ele>1019.200012207</ele>
        <time>2014-02-20T15:37:07.000Z</time>
      </trkpt>
      <trkpt lat="45.88776" lon="5.86618">
        <ele>1019.4000244141</ele>
        <time>2014-02-20T15:37:10.000Z</time>
      </trkpt>
      <trkpt lat="45.88774" lon="5.86635">
        <ele>1019.5999755859</ele>
        <time>2014-02-20T15:37:16.000Z</time>
      </trkpt>
      <trkpt lat="45.88777" lon="5.86651">
        <ele>1019.799987793</ele>
        <time>2014-02-20T15:37:21.000Z</time>
      </trkpt>
      <trkpt lat="45.88784" lon="5.86666">
        <ele>1020.200012207</ele>
        <time>2014-02-20T15:37:26.000Z</time>
      </trkpt>
      <trkpt lat="45.88786" lon="5.86679">
        <ele>1020</ele>
        <time>2014-02-20T15:37:30.000Z</time>
      </trkpt>
      <trkpt lat="45.88789" lon="5.86692">
        <ele>1019.5999755859</ele>
        <time>2014-02-20T15:37:35.000Z</time>
      </trkpt>
      <trkpt lat="45.88784" lon="5.86713">
        <ele>1018.799987793</ele>
        <time>2014-02-20T15:37:41.000Z</time>
      </trkpt>
      <trkpt lat="45.88787" lon="5.86732">
        <ele>1018.4000244141</ele>
        <time>2014-02-20T15:37:47.000Z</time>
      </trkpt>
      <trkpt lat="45.88787" lon="5.86744">
        <ele>1018</ele>
        <time>2014-02-20T15:37:51.000Z</time>
      </trkpt>
      <trkpt lat="45.88788" lon="5.86747">
        <ele>1018</ele>
        <time>2014-02-20T15:37:54.000Z</time>
      </trkpt>
      <trkpt lat="45.88794" lon="5.86758">
        <ele>1017.799987793</ele>
        <time>2014-02-20T15:37:59.000Z</time>
      </trkpt>
      <trkpt lat="45.88804" lon="5.86766">
        <ele>1018.200012207</ele>
        <time>2014-02-20T15:38:03.000Z</time>
      </trkpt>
      <trkpt lat="45.88816" lon="5.86772">
        <ele>1018.5999755859</ele>
        <time>2014-02-20T15:38:08.000Z</time>
      </trkpt>
      <trkpt lat="45.88821" lon="5.86775">
        <ele>1018.799987793</ele>
        <time>2014-02-20T15:38:10.000Z</time>
      </trkpt>
      <trkpt lat="45.88832" lon="5.86781">
        <ele>1019.200012207</ele>
        <time>2014-02-20T15:38:15.000Z</time>
      </trkpt>
      <trkpt lat="45.88838" lon="5.86784">
        <ele>1019.4000244141</ele>
        <time>2014-02-20T15:38:18.000Z</time>
      </trkpt>
      <trkpt lat="45.88841" lon="5.86789">
        <ele>1019.5999755859</ele>
        <time>2014-02-20T15:38:23.000Z</time>
      </trkpt>
      <trkpt lat="45.8885" lon="5.86789">
        <ele>1020</ele>
        <time>2014-02-20T15:38:27.000Z</time>
      </trkpt>
      <trkpt lat="45.88856" lon="5.86793">
        <ele>1020.4000244141</ele>
        <time>2014-02-20T15:38:31.000Z</time>
      </trkpt>
      <trkpt lat="45.88864" lon="5.868">
        <ele>1020.5999755859</ele>
        <time>2014-02-20T15:38:36.000Z</time>
      </trkpt>
      <trkpt lat="45.88869" lon="5.86807">
        <ele>1020.799987793</ele>
        <time>2014-02-20T15:38:39.000Z</time>
      </trkpt>
      <trkpt lat="45.88872" lon="5.86812">
        <ele>1020.799987793</ele>
        <time>2014-02-20T15:38:42.000Z</time>
      </trkpt>
      <trkpt lat="45.88876" lon="5.86817">
        <ele>1021</ele>
        <time>2014-02-20T15:38:48.000Z</time>
      </trkpt>
      <trkpt lat="45.88879" lon="5.86818">
        <ele>1021.200012207</ele>
        <time>2014-02-20T15:38:53.000Z</time>
      </trkpt>
      <trkpt lat="45.88879" lon="5.86818">
        <ele>1021.200012207</ele>
        <time>2014-02-20T15:38:54.000Z</time>
      </trkpt>
      <trkpt lat="45.8888" lon="5.86823">
        <ele>1021</ele>
        <time>2014-02-20T15:39:00.000Z</time>
      </trkpt>
      <trkpt lat="45.8888" lon="5.86825">
        <ele>1021</ele>
        <time>2014-02-20T15:39:01.000Z</time>
      </trkpt>
      <trkpt lat="45.88883" lon="5.86832">
        <ele>1021</ele>
        <time>2014-02-20T15:39:06.000Z</time>
      </trkpt>
      <trkpt lat="45.88888" lon="5.86844">
        <ele>1021.200012207</ele>
        <time>2014-02-20T15:39:13.000Z</time>
      </trkpt>
      <trkpt lat="45.88892" lon="5.86857">
        <ele>1021.4000244141</ele>
        <time>2014-02-20T15:39:18.000Z</time>
      </trkpt>
      <trkpt lat="45.88892" lon="5.86859">
        <ele>1021.4000244141</ele>
        <time>2014-02-20T15:39:19.000Z</time>
      </trkpt>
      <trkpt lat="45.88894" lon="5.86868">
        <ele>1021.4000244141</ele>
        <time>2014-02-20T15:39:23.000Z</time>
      </trkpt>
      <trkpt lat="45.88897" lon="5.86873">
        <ele>1021.5999755859</ele>
        <time>2014-02-20T15:39:28.000Z</time>
      </trkpt>
      <trkpt lat="45.889" lon="5.86879">
        <ele>1021.799987793</ele>
        <time>2014-02-20T15:39:33.000Z</time>
      </trkpt>
      <trkpt lat="45.88901" lon="5.86885">
        <ele>1021.799987793</ele>
        <time>2014-02-20T15:39:40.000Z</time>
      </trkpt>
      <trkpt lat="45.889" lon="5.86891">
        <ele>1021.799987793</ele>
        <time>2014-02-20T15:39:46.000Z</time>
      </trkpt>
      <trkpt lat="45.88899" lon="5.86894">
        <ele>1021.5999755859</ele>
        <time>2014-02-20T15:39:52.000Z</time>
      </trkpt>
      <trkpt lat="45.88898" lon="5.86901">
        <ele>1021.5999755859</ele>
        <time>2014-02-20T15:40:00.000Z</time>
      </trkpt>
      <trkpt lat="45.88898" lon="5.86905">
        <ele>1021.4000244141</ele>
        <time>2014-02-20T15:40:05.000Z</time>
      </trkpt>
      <trkpt lat="45.889" lon="5.86909">
        <ele>1021.5999755859</ele>
        <time>2014-02-20T15:40:10.000Z</time>
      </trkpt>
      <trkpt lat="45.88904" lon="5.86913">
        <ele>1022</ele>
        <time>2014-02-20T15:40:15.000Z</time>
      </trkpt>
      <trkpt lat="45.88904" lon="5.8692">
        <ele>1021.799987793</ele>
        <time>2014-02-20T15:40:21.000Z</time>
      </trkpt>
      <trkpt lat="45.88904" lon="5.86922">
        <ele>1021.5999755859</ele>
        <time>2014-02-20T15:40:22.000Z</time>
      </trkpt>
      <trkpt lat="45.88903" lon="5.8693">
        <ele>1021.200012207</ele>
        <time>2014-02-20T15:40:28.000Z</time>
      </trkpt>
      <trkpt lat="45.88902" lon="5.86931">
        <ele>1021</ele>
        <time>2014-02-20T15:40:30.000Z</time>
      </trkpt>
      <trkpt lat="45.88899" lon="5.86937">
        <ele>1020.4000244141</ele>
        <time>2014-02-20T15:40:35.000Z</time>
      </trkpt>
      <trkpt lat="45.889" lon="5.8694">
        <ele>1020.4000244141</ele>
        <time>2014-02-20T15:40:39.000Z</time>
      </trkpt>
      <trkpt lat="45.88897" lon="5.86949">
        <ele>1019.5999755859</ele>
        <time>2014-02-20T15:40:43.000Z</time>
      </trkpt>
      <trkpt lat="45.88895" lon="5.86953">
        <ele>1019.4000244141</ele>
        <time>2014-02-20T15:40:46.000Z</time>
      </trkpt>
      <trkpt lat="45.88893" lon="5.86962">
        <ele>1018.5999755859</ele>
        <time>2014-02-20T15:40:51.000Z</time>
      </trkpt>
      <trkpt lat="45.88892" lon="5.8697">
        <ele>1018.200012207</ele>
        <time>2014-02-20T15:40:55.000Z</time>
      </trkpt>
      <trkpt lat="45.88894" lon="5.86979">
        <ele>1017.799987793</ele>
        <time>2014-02-20T15:41:01.000Z</time>
      </trkpt>
      <trkpt lat="45.88897" lon="5.86984">
        <ele>1018</ele>
        <time>2014-02-20T15:41:07.000Z</time>
      </trkpt>
      <trkpt lat="45.88901" lon="5.86983">
        <ele>1018.200012207</ele>
        <time>2014-02-20T15:41:10.000Z</time>
      </trkpt>
      <trkpt lat="45.88905" lon="5.86988">
        <ele>1018.4000244141</ele>
        <time>2014-02-20T15:41:14.000Z</time>
      </trkpt>
      <trkpt lat="45.88913" lon="5.86991">
        <ele>1019</ele>
        <time>2014-02-20T15:41:22.000Z</time>
      </trkpt>
      <trkpt lat="45.88916" lon="5.86997">
        <ele>1019</ele>
        <time>2014-02-20T15:41:27.000Z</time>
      </trkpt>
      <trkpt lat="45.88922" lon="5.87005">
        <ele>1019</ele>
        <time>2014-02-20T15:41:32.000Z</time>
      </trkpt>
      <trkpt lat="45.88926" lon="5.87012">
        <ele>1019</ele>
        <time>2014-02-20T15:41:37.000Z</time>
      </trkpt>
      <trkpt lat="45.88927" lon="5.87014">
        <ele>1018.799987793</ele>
        <time>2014-02-20T15:41:38.000Z</time>
      </trkpt>
      <trkpt lat="45.8893" lon="5.87021">
        <ele>1018.5999755859</ele>
        <time>2014-02-20T15:41:43.000Z</time>
      </trkpt>
      <trkpt lat="45.88931" lon="5.87024">
        <ele>1018.4000244141</ele>
        <time>2014-02-20T15:41:47.000Z</time>
      </trkpt>
      <trkpt lat="45.88931" lon="5.87028">
        <ele>1018.200012207</ele>
        <time>2014-02-20T15:41:49.000Z</time>
      </trkpt>
      <trkpt lat="45.88932" lon="5.87037">
        <ele>1017.799987793</ele>
        <time>2014-02-20T15:41:55.000Z</time>
      </trkpt>
      <trkpt lat="45.88933" lon="5.8705">
        <ele>1017.200012207</ele>
        <time>2014-02-20T15:42:01.000Z</time>
      </trkpt>
      <trkpt lat="45.88935" lon="5.87052">
        <ele>1017</ele>
        <time>2014-02-20T15:42:03.000Z</time>
      </trkpt>
      <trkpt lat="45.88934" lon="5.87057">
        <ele>1016.799987793</ele>
        <time>2014-02-20T15:42:07.000Z</time>
      </trkpt>
      <trkpt lat="45.88932" lon="5.87064">
        <ele>1016.200012207</ele>
        <time>2014-02-20T15:42:11.000Z</time>
      </trkpt>
      <trkpt lat="45.88934" lon="5.87071">
        <ele>1016</ele>
        <time>2014-02-20T15:42:15.000Z</time>
      </trkpt>
      <trkpt lat="45.88938" lon="5.87076">
        <ele>1015.5999755859</ele>
        <time>2014-02-20T15:42:19.000Z</time>
      </trkpt>
      <trkpt lat="45.88939" lon="5.87081">
        <ele>1015.4000244141</ele>
        <time>2014-02-20T15:42:22.000Z</time>
      </trkpt>
      <trkpt lat="45.88939" lon="5.87088">
        <ele>1014.799987793</ele>
        <time>2014-02-20T15:42:29.000Z</time>
      </trkpt>
      <trkpt lat="45.88943" lon="5.87093">
        <ele>1014.4000244141</ele>
        <time>2014-02-20T15:42:36.000Z</time>
      </trkpt>
      <trkpt lat="45.88946" lon="5.87097">
        <ele>1014</ele>
        <time>2014-02-20T15:42:40.000Z</time>
      </trkpt>
      <trkpt lat="45.88948" lon="5.87101">
        <ele>1013.5999755859</ele>
        <time>2014-02-20T15:42:43.000Z</time>
      </trkpt>
      <trkpt lat="45.88949" lon="5.87107">
        <ele>1012.799987793</ele>
        <time>2014-02-20T15:42:47.000Z</time>
      </trkpt>
      <trkpt lat="45.88951" lon="5.87114">
        <ele>1012.200012207</ele>
        <time>2014-02-20T15:42:54.000Z</time>
      </trkpt>
      <trkpt lat="45.88949" lon="5.87119">
        <ele>1011.5999755859</ele>
        <time>2014-02-20T15:42:58.000Z</time>
      </trkpt>
      <trkpt lat="45.8895" lon="5.87123">
        <ele>1011.200012207</ele>
        <time>2014-02-20T15:43:02.000Z</time>
      </trkpt>
      <trkpt lat="45.88955" lon="5.87129">
        <ele>1010.5999755859</ele>
        <time>2014-02-20T15:43:07.000Z</time>
      </trkpt>
      <trkpt lat="45.8896" lon="5.8713">
        <ele>1010.4000244141</ele>
        <time>2014-02-20T15:43:12.000Z</time>
      </trkpt>
      <trkpt lat="45.88965" lon="5.87136">
        <ele>1009.799987793</ele>
        <time>2014-02-20T15:43:16.000Z</time>
      </trkpt>
      <trkpt lat="45.88968" lon="5.87141">
        <ele>1009.200012207</ele>
        <time>2014-02-20T15:43:18.000Z</time>
      </trkpt>
      <trkpt lat="45.88971" lon="5.87143">
        <ele>1009</ele>
        <time>2014-02-20T15:43:21.000Z</time>
      </trkpt>
      <trkpt lat="45.88969" lon="5.87148">
        <ele>1008.4000244141</ele>
        <time>2014-02-20T15:43:24.000Z</time>
      </trkpt>
      <trkpt lat="45.88973" lon="5.87157">
        <ele>1007.4000244141</ele>
        <time>2014-02-20T15:43:29.000Z</time>
      </trkpt>
      <trkpt lat="45.88975" lon="5.87167">
        <ele>1006.4000244141</ele>
        <time>2014-02-20T15:43:35.000Z</time>
      </trkpt>
      <trkpt lat="45.88977" lon="5.87174">
        <ele>1004.799987793</ele>
        <time>2014-02-20T15:43:40.000Z</time>
      </trkpt>
      <trkpt lat="45.88976" lon="5.87183">
        <ele>1003</ele>
        <time>2014-02-20T15:43:47.000Z</time>
      </trkpt>
      <trkpt lat="45.88977" lon="5.87187">
        <ele>1002.200012207</ele>
        <time>2014-02-20T15:43:49.000Z</time>
      </trkpt>
      <trkpt lat="45.88978" lon="5.87188">
        <ele>1002</ele>
        <time>2014-02-20T15:43:51.000Z</time>
      </trkpt>
      <trkpt lat="45.88982" lon="5.87188">
        <ele>1001.799987793</ele>
        <time>2014-02-20T15:43:53.000Z</time>
      </trkpt>
      <trkpt lat="45.88989" lon="5.87191">
        <ele>1001.200012207</ele>
        <time>2014-02-20T15:43:59.000Z</time>
      </trkpt>
      <trkpt lat="45.88996" lon="5.87196">
        <ele>1000</ele>
        <time>2014-02-20T15:44:06.000Z</time>
      </trkpt>
      <trkpt lat="45.88997" lon="5.87196">
        <ele>1000</ele>
        <time>2014-02-20T15:44:07.000Z</time>
      </trkpt>
      <trkpt lat="45.88999" lon="5.87195">
        <ele>1000.200012207</ele>
        <time>2014-02-20T15:44:09.000Z</time>
      </trkpt>
      <trkpt lat="45.89005" lon="5.87197">
        <ele>999.59997558594</ele>
        <time>2014-02-20T15:44:14.000Z</time>
      </trkpt>
      <trkpt lat="45.89009" lon="5.87198">
        <ele>999.20001220703</ele>
        <time>2014-02-20T15:44:17.000Z</time>
      </trkpt>
      <trkpt lat="45.89012" lon="5.87199">
        <ele>998.59997558594</ele>
        <time>2014-02-20T15:44:23.000Z</time>
      </trkpt>
      <trkpt lat="45.89014" lon="5.87199">
        <ele>998.40002441406</ele>
        <time>2014-02-20T15:44:28.000Z</time>
      </trkpt>
      <trkpt lat="45.89014" lon="5.87202">
        <ele>997.79998779297</ele>
        <time>2014-02-20T15:44:31.000Z</time>
      </trkpt>
      <trkpt lat="45.89011" lon="5.8721">
        <ele>996.40002441406</ele>
        <time>2014-02-20T15:44:37.000Z</time>
      </trkpt>
      <trkpt lat="45.89013" lon="5.87213">
        <ele>995.59997558594</ele>
        <time>2014-02-20T15:44:41.000Z</time>
      </trkpt>
      <trkpt lat="45.89019" lon="5.87217">
        <ele>994.40002441406</ele>
        <time>2014-02-20T15:44:45.000Z</time>
      </trkpt>
      <trkpt lat="45.89021" lon="5.8722">
        <ele>993.59997558594</ele>
        <time>2014-02-20T15:44:50.000Z</time>
      </trkpt>
      <trkpt lat="45.89029" lon="5.87226">
        <ele>991.79998779297</ele>
        <time>2014-02-20T15:44:59.000Z</time>
      </trkpt>
      <trkpt lat="45.89031" lon="5.8723">
        <ele>990.79998779297</ele>
        <time>2014-02-20T15:45:02.000Z</time>
      </trkpt>
      <trkpt lat="45.89031" lon="5.87233">
        <ele>990.20001220703</ele>
        <time>2014-02-20T15:45:04.000Z</time>
      </trkpt>
      <trkpt lat="45.89031" lon="5.87238">
        <ele>988.79998779297</ele>
        <time>2014-02-20T15:45:10.000Z</time>
      </trkpt>
      <trkpt lat="45.89036" lon="5.87243">
        <ele>987.40002441406</ele>
        <time>2014-02-20T15:45:15.000Z</time>
      </trkpt>
      <trkpt lat="45.89038" lon="5.87244">
        <ele>987.20001220703</ele>
        <time>2014-02-20T15:45:16.000Z</time>
      </trkpt>
      <trkpt lat="45.89049" lon="5.87251">
        <ele>984.59997558594</ele>
        <time>2014-02-20T15:45:21.000Z</time>
      </trkpt>
      <trkpt lat="45.89053" lon="5.87253">
        <ele>983.79998779297</ele>
        <time>2014-02-20T15:45:24.000Z</time>
      </trkpt>
      <trkpt lat="45.89062" lon="5.87255">
        <ele>982.59997558594</ele>
        <time>2014-02-20T15:45:29.000Z</time>
      </trkpt>
      <trkpt lat="45.89066" lon="5.87265">
        <ele>979.59997558594</ele>
        <time>2014-02-20T15:45:33.000Z</time>
      </trkpt>
      <trkpt lat="45.89065" lon="5.87276">
        <ele>977</ele>
        <time>2014-02-20T15:45:37.000Z</time>
      </trkpt>
      <trkpt lat="45.89065" lon="5.87279">
        <ele>976.20001220703</ele>
        <time>2014-02-20T15:45:38.000Z</time>
      </trkpt>
      <trkpt lat="45.89061" lon="5.87294">
        <ele>972.79998779297</ele>
        <time>2014-02-20T15:45:43.000Z</time>
      </trkpt>
      <trkpt lat="45.89063" lon="5.87302">
        <ele>970.40002441406</ele>
        <time>2014-02-20T15:45:47.000Z</time>
      </trkpt>
      <trkpt lat="45.89063" lon="5.87305">
        <ele>969.79998779297</ele>
        <time>2014-02-20T15:45:49.000Z</time>
      </trkpt>
      <trkpt lat="45.89063" lon="5.87315">
        <ele>967.40002441406</ele>
        <time>2014-02-20T15:45:54.000Z</time>
      </trkpt>
      <trkpt lat="45.89062" lon="5.87318">
        <ele>966.59997558594</ele>
        <time>2014-02-20T15:45:56.000Z</time>
      </trkpt>
      <trkpt lat="45.89058" lon="5.87322">
        <ele>965.79998779297</ele>
        <time>2014-02-20T15:46:00.000Z</time>
      </trkpt>
      <trkpt lat="45.89053" lon="5.87327">
        <ele>965.20001220703</ele>
        <time>2014-02-20T15:46:04.000Z</time>
      </trkpt>
      <trkpt lat="45.89044" lon="5.87334">
        <ele>964.20001220703</ele>
        <time>2014-02-20T15:46:10.000Z</time>
      </trkpt>
      <trkpt lat="45.89037" lon="5.87337">
        <ele>964</ele>
        <time>2014-02-20T15:46:15.000Z</time>
      </trkpt>
      <trkpt lat="45.89032" lon="5.87342">
        <ele>963.40002441406</ele>
        <time>2014-02-20T15:46:18.000Z</time>
      </trkpt>
      <trkpt lat="45.89026" lon="5.87345">
        <ele>963.40002441406</ele>
        <time>2014-02-20T15:46:21.000Z</time>
      </trkpt>
      <trkpt lat="45.89021" lon="5.8735">
        <ele>962.59997558594</ele>
        <time>2014-02-20T15:46:26.000Z</time>
      </trkpt>
      <trkpt lat="45.89018" lon="5.87365">
        <ele>959.79998779297</ele>
        <time>2014-02-20T15:46:33.000Z</time>
      </trkpt>
      <trkpt lat="45.89016" lon="5.87363">
        <ele>960.40002441406</ele>
        <time>2014-02-20T15:46:40.000Z</time>
      </trkpt>
      <trkpt lat="45.89014" lon="5.87367">
        <ele>959.59997558594</ele>
        <time>2014-02-20T15:46:44.000Z</time>
      </trkpt>
      <trkpt lat="45.89015" lon="5.8737">
        <ele>959</ele>
        <time>2014-02-20T15:46:49.000Z</time>
      </trkpt>
      <trkpt lat="45.89014" lon="5.87373">
        <ele>958.40002441406</ele>
        <time>2014-02-20T15:46:52.000Z</time>
      </trkpt>
      <trkpt lat="45.8901" lon="5.8738">
        <ele>957.20001220703</ele>
        <time>2014-02-20T15:46:56.000Z</time>
      </trkpt>
      <trkpt lat="45.89005" lon="5.87389">
        <ele>955.59997558594</ele>
        <time>2014-02-20T15:47:03.000Z</time>
      </trkpt>
      <trkpt lat="45.89006" lon="5.87399">
        <ele>953.40002441406</ele>
        <time>2014-02-20T15:47:21.000Z</time>
      </trkpt>
      <trkpt lat="45.89006" lon="5.87399">
        <ele>953.40002441406</ele>
        <time>2014-02-20T15:47:23.000Z</time>
      </trkpt>
      <trkpt lat="45.89011" lon="5.874">
        <ele>952.79998779297</ele>
        <time>2014-02-20T15:47:27.000Z</time>
      </trkpt>
      <trkpt lat="45.89012" lon="5.87402">
        <ele>952.20001220703</ele>
        <time>2014-02-20T15:47:29.000Z</time>
      </trkpt>
      <trkpt lat="45.89016" lon="5.87405">
        <ele>951.40002441406</ele>
        <time>2014-02-20T15:47:37.000Z</time>
      </trkpt>
      <trkpt lat="45.89019" lon="5.87408">
        <ele>950.59997558594</ele>
        <time>2014-02-20T15:47:40.000Z</time>
      </trkpt>
      <trkpt lat="45.89023" lon="5.87416">
        <ele>948.59997558594</ele>
        <time>2014-02-20T15:47:45.000Z</time>
      </trkpt>
      <trkpt lat="45.89024" lon="5.8742">
        <ele>948.20001220703</ele>
        <time>2014-02-20T15:47:47.000Z</time>
      </trkpt>
      <trkpt lat="45.89027" lon="5.87426">
        <ele>947.79998779297</ele>
        <time>2014-02-20T15:47:53.000Z</time>
      </trkpt>
      <trkpt lat="45.89027" lon="5.87427">
        <ele>947.79998779297</ele>
        <time>2014-02-20T15:47:54.000Z</time>
      </trkpt>
      <trkpt lat="45.89029" lon="5.87428">
        <ele>947.59997558594</ele>
        <time>2014-02-20T15:47:56.000Z</time>
      </trkpt>
      <trkpt lat="45.8903" lon="5.87429">
        <ele>947.59997558594</ele>
        <time>2014-02-20T15:47:58.000Z</time>
      </trkpt>
      <trkpt lat="45.89035" lon="5.87436">
        <ele>947</ele>
        <time>2014-02-20T15:48:03.000Z</time>
      </trkpt>
      <trkpt lat="45.89034" lon="5.87439">
        <ele>947</ele>
        <time>2014-02-20T15:48:05.000Z</time>
      </trkpt>
      <trkpt lat="45.89029" lon="5.87442">
        <ele>947.20001220703</ele>
        <time>2014-02-20T15:48:09.000Z</time>
      </trkpt>
      <trkpt lat="45.89025" lon="5.8745">
        <ele>947.20001220703</ele>
        <time>2014-02-20T15:48:13.000Z</time>
      </trkpt>
      <trkpt lat="45.89027" lon="5.87458">
        <ele>946.79998779297</ele>
        <time>2014-02-20T15:48:19.000Z</time>
      </trkpt>
      <trkpt lat="45.89031" lon="5.87457">
        <ele>946.79998779297</ele>
        <time>2014-02-20T15:48:22.000Z</time>
      </trkpt>
      <trkpt lat="45.89043" lon="5.87449">
        <ele>946.40002441406</ele>
        <time>2014-02-20T15:48:27.000Z</time>
      </trkpt>
      <trkpt lat="45.89056" lon="5.87445">
        <ele>945.79998779297</ele>
        <time>2014-02-20T15:48:32.000Z</time>
      </trkpt>
      <trkpt lat="45.89069" lon="5.87441">
        <ele>945</ele>
        <time>2014-02-20T15:48:37.000Z</time>
      </trkpt>
      <trkpt lat="45.8908" lon="5.87441">
        <ele>944.40002441406</ele>
        <time>2014-02-20T15:48:41.000Z</time>
      </trkpt>
      <trkpt lat="45.89089" lon="5.87437">
        <ele>944</ele>
        <time>2014-02-20T15:48:45.000Z</time>
      </trkpt>
      <trkpt lat="45.89102" lon="5.87436">
        <ele>943.59997558594</ele>
        <time>2014-02-20T15:48:50.000Z</time>
      </trkpt>
      <trkpt lat="45.89113" lon="5.87438">
        <ele>943.20001220703</ele>
        <time>2014-02-20T15:48:54.000Z</time>
      </trkpt>
      <trkpt lat="45.89116" lon="5.87438">
        <ele>943</ele>
        <time>2014-02-20T15:48:55.000Z</time>
      </trkpt>
      <trkpt lat="45.89133" lon="5.87438">
        <ele>942.40002441406</ele>
        <time>2014-02-20T15:49:00.000Z</time>
      </trkpt>
      <trkpt lat="45.89151" lon="5.87439">
        <ele>941.79998779297</ele>
        <time>2014-02-20T15:49:06.000Z</time>
      </trkpt>
      <trkpt lat="45.89169" lon="5.87444">
        <ele>941.20001220703</ele>
        <time>2014-02-20T15:49:10.000Z</time>
      </trkpt>
      <trkpt lat="45.89176" lon="5.87445">
        <ele>941</ele>
        <time>2014-02-20T15:49:13.000Z</time>
      </trkpt>
      <trkpt lat="45.89181" lon="5.8744">
        <ele>940.59997558594</ele>
        <time>2014-02-20T15:49:18.000Z</time>
      </trkpt>
      <trkpt lat="45.89195" lon="5.87441">
        <ele>940</ele>
        <time>2014-02-20T15:49:24.000Z</time>
      </trkpt>
      <trkpt lat="45.89204" lon="5.87442">
        <ele>939.59997558594</ele>
        <time>2014-02-20T15:49:28.000Z</time>
      </trkpt>
      <trkpt lat="45.89216" lon="5.87443">
        <ele>939.20001220703</ele>
        <time>2014-02-20T15:49:32.000Z</time>
      </trkpt>
      <trkpt lat="45.89221" lon="5.87442">
        <ele>939</ele>
        <time>2014-02-20T15:49:34.000Z</time>
      </trkpt>
      <trkpt lat="45.8923" lon="5.87443">
        <ele>938.59997558594</ele>
        <time>2014-02-20T15:49:39.000Z</time>
      </trkpt>
      <trkpt lat="45.89236" lon="5.87443">
        <ele>938.20001220703</ele>
        <time>2014-02-20T15:49:41.000Z</time>
      </trkpt>
      <trkpt lat="45.89253" lon="5.87448">
        <ele>937.40002441406</ele>
        <time>2014-02-20T15:49:46.000Z</time>
      </trkpt>
      <trkpt lat="45.8926" lon="5.87449">
        <ele>936.79998779297</ele>
        <time>2014-02-20T15:49:50.000Z</time>
      </trkpt>
      <trkpt lat="45.89272" lon="5.87446">
        <ele>936.20001220703</ele>
        <time>2014-02-20T15:49:55.000Z</time>
      </trkpt>
      <trkpt lat="45.89284" lon="5.87443">
        <ele>935.40002441406</ele>
        <time>2014-02-20T15:50:00.000Z</time>
      </trkpt>
      <trkpt lat="45.89297" lon="5.87441">
        <ele>934.59997558594</ele>
        <time>2014-02-20T15:50:05.000Z</time>
      </trkpt>
      <trkpt lat="45.89304" lon="5.87447">
        <ele>934</ele>
        <time>2014-02-20T15:50:10.000Z</time>
      </trkpt>
      <trkpt lat="45.89309" lon="5.87458">
        <ele>933.20001220703</ele>
        <time>2014-02-20T15:50:14.000Z</time>
      </trkpt>
      <trkpt lat="45.89322" lon="5.87481">
        <ele>931.59997558594</ele>
        <time>2014-02-20T15:50:20.000Z</time>
      </trkpt>
      <trkpt lat="45.89329" lon="5.87496">
        <ele>930.40002441406</ele>
        <time>2014-02-20T15:50:25.000Z</time>
      </trkpt>
      <trkpt lat="45.89333" lon="5.87507">
        <ele>929.40002441406</ele>
        <time>2014-02-20T15:50:29.000Z</time>
      </trkpt>
      <trkpt lat="45.89334" lon="5.87509">
        <ele>929.20001220703</ele>
        <time>2014-02-20T15:50:30.000Z</time>
      </trkpt>
      <trkpt lat="45.89345" lon="5.87526">
        <ele>928.59997558594</ele>
        <time>2014-02-20T15:50:35.000Z</time>
      </trkpt>
      <trkpt lat="45.8935" lon="5.87541">
        <ele>927.20001220703</ele>
        <time>2014-02-20T15:50:39.000Z</time>
      </trkpt>
      <trkpt lat="45.89351" lon="5.87545">
        <ele>926.79998779297</ele>
        <time>2014-02-20T15:50:40.000Z</time>
      </trkpt>
      <trkpt lat="45.89347" lon="5.87555">
        <ele>925.59997558594</ele>
        <time>2014-02-20T15:50:46.000Z</time>
      </trkpt>
      <trkpt lat="45.89342" lon="5.87567">
        <ele>924.40002441406</ele>
        <time>2014-02-20T15:50:51.000Z</time>
      </trkpt>
      <trkpt lat="45.89339" lon="5.87582">
        <ele>923</ele>
        <time>2014-02-20T15:50:55.000Z</time>
      </trkpt>
      <trkpt lat="45.89337" lon="5.87597">
        <ele>919.59997558594</ele>
        <time>2014-02-20T15:50:59.000Z</time>
      </trkpt>
      <trkpt lat="45.8934" lon="5.87607">
        <ele>917</ele>
        <time>2014-02-20T15:51:02.000Z</time>
      </trkpt>
      <trkpt lat="45.89338" lon="5.87613">
        <ele>915.79998779297</ele>
        <time>2014-02-20T15:51:04.000Z</time>
      </trkpt>
      <trkpt lat="45.89337" lon="5.87618">
        <ele>914.59997558594</ele>
        <time>2014-02-20T15:51:06.000Z</time>
      </trkpt>
      <trkpt lat="45.89335" lon="5.87623">
        <ele>913.40002441406</ele>
        <time>2014-02-20T15:51:09.000Z</time>
      </trkpt>
      <trkpt lat="45.89333" lon="5.87634">
        <ele>910.79998779297</ele>
        <time>2014-02-20T15:51:15.000Z</time>
      </trkpt>
      <trkpt lat="45.89333" lon="5.87645">
        <ele>908.40002441406</ele>
        <time>2014-02-20T15:51:19.000Z</time>
      </trkpt>
      <trkpt lat="45.89332" lon="5.87664">
        <ele>903.79998779297</ele>
        <time>2014-02-20T15:51:25.000Z</time>
      </trkpt>
      <trkpt lat="45.89338" lon="5.8767">
        <ele>901.79998779297</ele>
        <time>2014-02-20T15:51:29.000Z</time>
      </trkpt>
      <trkpt lat="45.89345" lon="5.87685">
        <ele>897.40002441406</ele>
        <time>2014-02-20T15:51:33.000Z</time>
      </trkpt>
      <trkpt lat="45.89348" lon="5.87688">
        <ele>896.59997558594</ele>
        <time>2014-02-20T15:51:37.000Z</time>
      </trkpt>
      <trkpt lat="45.8935" lon="5.87689">
        <ele>896</ele>
        <time>2014-02-20T15:51:41.000Z</time>
      </trkpt>
      <trkpt lat="45.89357" lon="5.8771">
        <ele>890</ele>
        <time>2014-02-20T15:51:46.000Z</time>
      </trkpt>
      <trkpt lat="45.89356" lon="5.8772">
        <ele>887.20001220703</ele>
        <time>2014-02-20T15:51:50.000Z</time>
      </trkpt>
      <trkpt lat="45.89354" lon="5.87735">
        <ele>883.20001220703</ele>
        <time>2014-02-20T15:51:55.000Z</time>
      </trkpt>
      <trkpt lat="45.89352" lon="5.8774">
        <ele>881.79998779297</ele>
        <time>2014-02-20T15:51:59.000Z</time>
      </trkpt>
      <trkpt lat="45.89352" lon="5.87741">
        <ele>881.59997558594</ele>
        <time>2014-02-20T15:52:11.000Z</time>
      </trkpt>
      <trkpt lat="45.89352" lon="5.87744">
        <ele>880.79998779297</ele>
        <time>2014-02-20T15:52:14.000Z</time>
      </trkpt>
      <trkpt lat="45.89356" lon="5.87744">
        <ele>880.40002441406</ele>
        <time>2014-02-20T15:53:21.000Z</time>
      </trkpt>
      <trkpt lat="45.89353" lon="5.87746">
        <ele>880.20001220703</ele>
        <time>2014-02-20T15:53:42.000Z</time>
      </trkpt>
      <trkpt lat="45.89347" lon="5.87746">
        <ele>880.40002441406</ele>
        <time>2014-02-20T15:53:56.000Z</time>
      </trkpt>
      <trkpt lat="45.89347" lon="5.87746">
        <ele>880.40002441406</ele>
        <time>2014-02-20T15:54:03.000Z</time>
      </trkpt>
      <trkpt lat="45.8935" lon="5.87752">
        <ele>878.79998779297</ele>
        <time>2014-02-20T15:54:09.000Z</time>
      </trkpt>
      <trkpt lat="45.8935" lon="5.87753">
        <ele>878.40002441406</ele>
        <time>2014-02-20T15:54:10.000Z</time>
      </trkpt>
      <trkpt lat="45.89342" lon="5.87766">
        <ele>875.59997558594</ele>
        <time>2014-02-20T15:54:16.000Z</time>
      </trkpt>
      <trkpt lat="45.89339" lon="5.87772">
        <ele>874.40002441406</ele>
        <time>2014-02-20T15:54:18.000Z</time>
      </trkpt>
      <trkpt lat="45.89335" lon="5.87776">
        <ele>873.59997558594</ele>
        <time>2014-02-20T15:54:23.000Z</time>
      </trkpt>
      <trkpt lat="45.89335" lon="5.87777">
        <ele>873.40002441406</ele>
        <time>2014-02-20T15:54:24.000Z</time>
      </trkpt>
      <trkpt lat="45.89334" lon="5.87783">
        <ele>872</ele>
        <time>2014-02-20T15:54:30.000Z</time>
      </trkpt>
      <trkpt lat="45.89332" lon="5.87786">
        <ele>871.59997558594</ele>
        <time>2014-02-20T15:54:34.000Z</time>
      </trkpt>
      <trkpt lat="45.8933" lon="5.87792">
        <ele>870.20001220703</ele>
        <time>2014-02-20T15:54:38.000Z</time>
      </trkpt>
      <trkpt lat="45.8933" lon="5.87797">
        <ele>869</ele>
        <time>2014-02-20T15:54:40.000Z</time>
      </trkpt>
      <trkpt lat="45.8933" lon="5.87803">
        <ele>867.40002441406</ele>
        <time>2014-02-20T15:54:44.000Z</time>
      </trkpt>
      <trkpt lat="45.8933" lon="5.87805">
        <ele>866.79998779297</ele>
        <time>2014-02-20T15:54:46.000Z</time>
      </trkpt>
      <trkpt lat="45.89334" lon="5.87807">
        <ele>866.40002441406</ele>
        <time>2014-02-20T15:54:49.000Z</time>
      </trkpt>
      <trkpt lat="45.89341" lon="5.8781">
        <ele>864.59997558594</ele>
        <time>2014-02-20T15:54:54.000Z</time>
      </trkpt>
      <trkpt lat="45.89342" lon="5.87814">
        <ele>863.59997558594</ele>
        <time>2014-02-20T15:54:56.000Z</time>
      </trkpt>
      <trkpt lat="45.89342" lon="5.87822">
        <ele>861.40002441406</ele>
        <time>2014-02-20T15:54:58.000Z</time>
      </trkpt>
      <trkpt lat="45.89339" lon="5.87837">
        <ele>858</ele>
        <time>2014-02-20T15:55:02.000Z</time>
      </trkpt>
      <trkpt lat="45.89342" lon="5.87843">
        <ele>855.59997558594</ele>
        <time>2014-02-20T15:55:07.000Z</time>
      </trkpt>
      <trkpt lat="45.89345" lon="5.8785">
        <ele>853.40002441406</ele>
        <time>2014-02-20T15:55:10.000Z</time>
      </trkpt>
      <trkpt lat="45.89353" lon="5.87862">
        <ele>848.40002441406</ele>
        <time>2014-02-20T15:55:14.000Z</time>
      </trkpt>
      <trkpt lat="45.89354" lon="5.87875">
        <ele>844.40002441406</ele>
        <time>2014-02-20T15:55:20.000Z</time>
      </trkpt>
      <trkpt lat="45.89354" lon="5.87879">
        <ele>843.20001220703</ele>
        <time>2014-02-20T15:55:22.000Z</time>
      </trkpt>
      <trkpt lat="45.89354" lon="5.87893">
        <ele>839</ele>
        <time>2014-02-20T15:55:28.000Z</time>
      </trkpt>
      <trkpt lat="45.89355" lon="5.87904">
        <ele>835.40002441406</ele>
        <time>2014-02-20T15:55:33.000Z</time>
      </trkpt>
      <trkpt lat="45.89355" lon="5.87916">
        <ele>831.79998779297</ele>
        <time>2014-02-20T15:55:37.000Z</time>
      </trkpt>
      <trkpt lat="45.89357" lon="5.87923">
        <ele>829.59997558594</ele>
        <time>2014-02-20T15:55:40.000Z</time>
      </trkpt>
      <trkpt lat="45.89359" lon="5.87941">
        <ele>824.79998779297</ele>
        <time>2014-02-20T15:55:46.000Z</time>
      </trkpt>
      <trkpt lat="45.89358" lon="5.87952">
        <ele>822.20001220703</ele>
        <time>2014-02-20T15:55:49.000Z</time>
      </trkpt>
      <trkpt lat="45.8936" lon="5.87964">
        <ele>818.79998779297</ele>
        <time>2014-02-20T15:55:53.000Z</time>
      </trkpt>
      <trkpt lat="45.89369" lon="5.87976">
        <ele>814.79998779297</ele>
        <time>2014-02-20T15:55:59.000Z</time>
      </trkpt>
      <trkpt lat="45.89373" lon="5.87981">
        <ele>813.20001220703</ele>
        <time>2014-02-20T15:56:03.000Z</time>
      </trkpt>
      <trkpt lat="45.89376" lon="5.87991">
        <ele>810.59997558594</ele>
        <time>2014-02-20T15:56:07.000Z</time>
      </trkpt>
      <trkpt lat="45.89376" lon="5.87995">
        <ele>809.59997558594</ele>
        <time>2014-02-20T15:56:09.000Z</time>
      </trkpt>
      <trkpt lat="45.89375" lon="5.88002">
        <ele>807.79998779297</ele>
        <time>2014-02-20T15:56:14.000Z</time>
      </trkpt>
      <trkpt lat="45.89375" lon="5.88008">
        <ele>806</ele>
        <time>2014-02-20T15:56:24.000Z</time>
      </trkpt>
      <trkpt lat="45.89373" lon="5.88013">
        <ele>804.40002441406</ele>
        <time>2014-02-20T15:56:28.000Z</time>
      </trkpt>
      <trkpt lat="45.89372" lon="5.88016">
        <ele>803.59997558594</ele>
        <time>2014-02-20T15:56:31.000Z</time>
      </trkpt>
      <trkpt lat="45.89376" lon="5.88019">
        <ele>802.20001220703</ele>
        <time>2014-02-20T15:56:37.000Z</time>
      </trkpt>
      <trkpt lat="45.89381" lon="5.88026">
        <ele>799.59997558594</ele>
        <time>2014-02-20T15:56:45.000Z</time>
      </trkpt>
      <trkpt lat="45.89384" lon="5.88031">
        <ele>797.79998779297</ele>
        <time>2014-02-20T15:56:48.000Z</time>
      </trkpt>
      <trkpt lat="45.89384" lon="5.88037">
        <ele>796</ele>
        <time>2014-02-20T15:56:53.000Z</time>
      </trkpt>
      <trkpt lat="45.89381" lon="5.88044">
        <ele>793.79998779297</ele>
        <time>2014-02-20T15:56:58.000Z</time>
      </trkpt>
      <trkpt lat="45.89383" lon="5.88051">
        <ele>791.59997558594</ele>
        <time>2014-02-20T15:57:01.000Z</time>
      </trkpt>
      <trkpt lat="45.89382" lon="5.88057">
        <ele>789.59997558594</ele>
        <time>2014-02-20T15:57:04.000Z</time>
      </trkpt>
      <trkpt lat="45.89387" lon="5.88062">
        <ele>787.59997558594</ele>
        <time>2014-02-20T15:57:09.000Z</time>
      </trkpt>
      <trkpt lat="45.89387" lon="5.88064">
        <ele>787.20001220703</ele>
        <time>2014-02-20T15:57:10.000Z</time>
      </trkpt>
      <trkpt lat="45.89386" lon="5.88072">
        <ele>784.79998779297</ele>
        <time>2014-02-20T15:57:15.000Z</time>
      </trkpt>
      <trkpt lat="45.89384" lon="5.8808">
        <ele>782.20001220703</ele>
        <time>2014-02-20T15:57:20.000Z</time>
      </trkpt>
      <trkpt lat="45.89381" lon="5.88086">
        <ele>780</ele>
        <time>2014-02-20T15:57:25.000Z</time>
      </trkpt>
      <trkpt lat="45.89382" lon="5.88086">
        <ele>780</ele>
        <time>2014-02-20T15:57:31.000Z</time>
      </trkpt>
      <trkpt lat="45.89382" lon="5.88089">
        <ele>778.40002441406</ele>
        <time>2014-02-20T15:57:37.000Z</time>
      </trkpt>
      <trkpt lat="45.89382" lon="5.88092">
        <ele>777.40002441406</ele>
        <time>2014-02-20T15:57:42.000Z</time>
      </trkpt>
      <trkpt lat="45.89383" lon="5.88093">
        <ele>776.59997558594</ele>
        <time>2014-02-20T15:57:44.000Z</time>
      </trkpt>
      <trkpt lat="45.89385" lon="5.88097">
        <ele>775.20001220703</ele>
        <time>2014-02-20T15:57:46.000Z</time>
      </trkpt>
      <trkpt lat="45.89383" lon="5.88107">
        <ele>770.59997558594</ele>
        <time>2014-02-20T15:57:50.000Z</time>
      </trkpt>
      <trkpt lat="45.89392" lon="5.8811">
        <ele>768.79998779297</ele>
        <time>2014-02-20T15:57:56.000Z</time>
      </trkpt>
      <trkpt lat="45.89392" lon="5.8811">
        <ele>768.59997558594</ele>
        <time>2014-02-20T15:57:57.000Z</time>
      </trkpt>
      <trkpt lat="45.89399" lon="5.88116">
        <ele>765.59997558594</ele>
        <time>2014-02-20T15:58:02.000Z</time>
      </trkpt>
      <trkpt lat="45.89412" lon="5.88124">
        <ele>761.59997558594</ele>
        <time>2014-02-20T15:58:08.000Z</time>
      </trkpt>
      <trkpt lat="45.89416" lon="5.88126">
        <ele>760.59997558594</ele>
        <time>2014-02-20T15:58:11.000Z</time>
      </trkpt>
      <trkpt lat="45.89418" lon="5.88126">
        <ele>760.20001220703</ele>
        <time>2014-02-20T15:58:13.000Z</time>
      </trkpt>
      <trkpt lat="45.89424" lon="5.88131">
        <ele>758</ele>
        <time>2014-02-20T15:58:18.000Z</time>
      </trkpt>
      <trkpt lat="45.89427" lon="5.88136">
        <ele>755.20001220703</ele>
        <time>2014-02-20T15:58:21.000Z</time>
      </trkpt>
      <trkpt lat="45.89435" lon="5.88143">
        <ele>751.59997558594</ele>
        <time>2014-02-20T15:58:26.000Z</time>
      </trkpt>
      <trkpt lat="45.89443" lon="5.88153">
        <ele>746</ele>
        <time>2014-02-20T15:58:31.000Z</time>
      </trkpt>
      <trkpt lat="45.89444" lon="5.88153">
        <ele>746</ele>
        <time>2014-02-20T15:58:33.000Z</time>
      </trkpt>
      <trkpt lat="45.89453" lon="5.88158">
        <ele>743.20001220703</ele>
        <time>2014-02-20T15:58:38.000Z</time>
      </trkpt>
      <trkpt lat="45.89457" lon="5.88159">
        <ele>742</ele>
        <time>2014-02-20T15:58:39.000Z</time>
      </trkpt>
      <trkpt lat="45.89464" lon="5.88164">
        <ele>739.40002441406</ele>
        <time>2014-02-20T15:58:42.000Z</time>
      </trkpt>
      <trkpt lat="45.89466" lon="5.88165">
        <ele>738.59997558594</ele>
        <time>2014-02-20T15:58:44.000Z</time>
      </trkpt>
      <trkpt lat="45.89477" lon="5.8817">
        <ele>735.59997558594</ele>
        <time>2014-02-20T15:58:49.000Z</time>
      </trkpt>
      <trkpt lat="45.89479" lon="5.88171">
        <ele>735.20001220703</ele>
        <time>2014-02-20T15:58:50.000Z</time>
      </trkpt>
      <trkpt lat="45.89486" lon="5.88175">
        <ele>733.40002441406</ele>
        <time>2014-02-20T15:58:55.000Z</time>
      </trkpt>
      <trkpt lat="45.89491" lon="5.88179">
        <ele>731.40002441406</ele>
        <time>2014-02-20T15:58:58.000Z</time>
      </trkpt>
      <trkpt lat="45.89492" lon="5.88182">
        <ele>730.20001220703</ele>
        <time>2014-02-20T15:59:01.000Z</time>
      </trkpt>
      <trkpt lat="45.89492" lon="5.88184">
        <ele>729.79998779297</ele>
        <time>2014-02-20T15:59:04.000Z</time>
      </trkpt>
      <trkpt lat="45.89487" lon="5.88187">
        <ele>729</ele>
        <time>2014-02-20T15:59:12.000Z</time>
      </trkpt>
      <trkpt lat="45.89487" lon="5.88186">
        <ele>729.20001220703</ele>
        <time>2014-02-20T15:59:28.000Z</time>
      </trkpt>
      <trkpt lat="45.89488" lon="5.88185">
        <ele>729.59997558594</ele>
        <time>2014-02-20T15:59:34.000Z</time>
      </trkpt>
      <trkpt lat="45.89493" lon="5.88183">
        <ele>729.79998779297</ele>
        <time>2014-02-20T15:59:39.000Z</time>
      </trkpt>
      <trkpt lat="45.89492" lon="5.88183">
        <ele>730</ele>
        <time>2014-02-20T15:59:42.000Z</time>
      </trkpt>
      <trkpt lat="45.89494" lon="5.88186">
        <ele>728.79998779297</ele>
        <time>2014-02-20T15:59:44.000Z</time>
      </trkpt>
      <trkpt lat="45.89494" lon="5.88189">
        <ele>727.79998779297</ele>
        <time>2014-02-20T15:59:51.000Z</time>
      </trkpt>
      <trkpt lat="45.89493" lon="5.8819">
        <ele>727.59997558594</ele>
        <time>2014-02-20T15:59:52.000Z</time>
      </trkpt>
      <trkpt lat="45.89487" lon="5.88203">
        <ele>723.40002441406</ele>
        <time>2014-02-20T15:59:58.000Z</time>
      </trkpt>
      <trkpt lat="45.89489" lon="5.88206">
        <ele>722</ele>
        <time>2014-02-20T16:00:02.000Z</time>
      </trkpt>
      <trkpt lat="45.89493" lon="5.88204">
        <ele>722.40002441406</ele>
        <time>2014-02-20T16:00:06.000Z</time>
      </trkpt>
      <trkpt lat="45.89493" lon="5.88208">
        <ele>720.79998779297</ele>
        <time>2014-02-20T16:00:11.000Z</time>
      </trkpt>
      <trkpt lat="45.89496" lon="5.88211">
        <ele>719.79998779297</ele>
        <time>2014-02-20T16:00:21.000Z</time>
      </trkpt>
      <trkpt lat="45.89495" lon="5.88216">
        <ele>718</ele>
        <time>2014-02-20T16:00:25.000Z</time>
      </trkpt>
      <trkpt lat="45.89497" lon="5.88218">
        <ele>717.20001220703</ele>
        <time>2014-02-20T16:00:28.000Z</time>
      </trkpt>
      <trkpt lat="45.89501" lon="5.88219">
        <ele>716.79998779297</ele>
        <time>2014-02-20T16:00:33.000Z</time>
      </trkpt>
      <trkpt lat="45.89499" lon="5.88223">
        <ele>715.40002441406</ele>
        <time>2014-02-20T16:00:38.000Z</time>
      </trkpt>
      <trkpt lat="45.89498" lon="5.88226">
        <ele>714.40002441406</ele>
        <time>2014-02-20T16:00:46.000Z</time>
      </trkpt>
      <trkpt lat="45.89498" lon="5.8823">
        <ele>713</ele>
        <time>2014-02-20T16:00:48.000Z</time>
      </trkpt>
      <trkpt lat="45.89501" lon="5.88241">
        <ele>709</ele>
        <time>2014-02-20T16:00:53.000Z</time>
      </trkpt>
      <trkpt lat="45.89505" lon="5.88239">
        <ele>709.59997558594</ele>
        <time>2014-02-20T16:00:58.000Z</time>
      </trkpt>
      <trkpt lat="45.89505" lon="5.88239">
        <ele>709.59997558594</ele>
        <time>2014-02-20T16:01:02.000Z</time>
      </trkpt>
      <trkpt lat="45.89509" lon="5.88235">
        <ele>710.79998779297</ele>
        <time>2014-02-20T16:01:06.000Z</time>
      </trkpt>
      <trkpt lat="45.89512" lon="5.88235">
        <ele>710.79998779297</ele>
        <time>2014-02-20T16:01:08.000Z</time>
      </trkpt>
      <trkpt lat="45.89517" lon="5.88239">
        <ele>709.40002441406</ele>
        <time>2014-02-20T16:01:14.000Z</time>
      </trkpt>
      <trkpt lat="45.89519" lon="5.88239">
        <ele>709.40002441406</ele>
        <time>2014-02-20T16:01:18.000Z</time>
      </trkpt>
      <trkpt lat="45.89525" lon="5.88233">
        <ele>711.20001220703</ele>
        <time>2014-02-20T16:01:25.000Z</time>
      </trkpt>
      <trkpt lat="45.89528" lon="5.88233">
        <ele>711</ele>
        <time>2014-02-20T16:01:28.000Z</time>
      </trkpt>
      <trkpt lat="45.89534" lon="5.88233">
        <ele>711</ele>
        <time>2014-02-20T16:01:32.000Z</time>
      </trkpt>
      <trkpt lat="45.89536" lon="5.88237">
        <ele>709.59997558594</ele>
        <time>2014-02-20T16:01:36.000Z</time>
      </trkpt>
      <trkpt lat="45.89542" lon="5.88237">
        <ele>709.20001220703</ele>
        <time>2014-02-20T16:01:41.000Z</time>
      </trkpt>
      <trkpt lat="45.89544" lon="5.88239">
        <ele>708.59997558594</ele>
        <time>2014-02-20T16:01:43.000Z</time>
      </trkpt>
      <trkpt lat="45.89549" lon="5.88241">
        <ele>707.79998779297</ele>
        <time>2014-02-20T16:01:48.000Z</time>
      </trkpt>
      <trkpt lat="45.89551" lon="5.88241">
        <ele>707.59997558594</ele>
        <time>2014-02-20T16:01:49.000Z</time>
      </trkpt>
      <trkpt lat="45.89558" lon="5.88241">
        <ele>707.20001220703</ele>
        <time>2014-02-20T16:01:56.000Z</time>
      </trkpt>
      <trkpt lat="45.89559" lon="5.88242">
        <ele>706.79998779297</ele>
        <time>2014-02-20T16:01:57.000Z</time>
      </trkpt>
      <trkpt lat="45.89565" lon="5.88241">
        <ele>707</ele>
        <time>2014-02-20T16:02:02.000Z</time>
      </trkpt>
      <trkpt lat="45.89572" lon="5.8824">
        <ele>707</ele>
        <time>2014-02-20T16:02:07.000Z</time>
      </trkpt>
      <trkpt lat="45.89577" lon="5.8824">
        <ele>707.20001220703</ele>
        <time>2014-02-20T16:02:12.000Z</time>
      </trkpt>
      <trkpt lat="45.89585" lon="5.88239">
        <ele>707</ele>
        <time>2014-02-20T16:02:18.000Z</time>
      </trkpt>
      <trkpt lat="45.89585" lon="5.8824">
        <ele>707</ele>
        <time>2014-02-20T16:02:19.000Z</time>
      </trkpt>
      <trkpt lat="45.89593" lon="5.8824">
        <ele>707</ele>
        <time>2014-02-20T16:02:25.000Z</time>
      </trkpt>
      <trkpt lat="45.89599" lon="5.88241">
        <ele>706.20001220703</ele>
        <time>2014-02-20T16:02:31.000Z</time>
      </trkpt>
      <trkpt lat="45.8961" lon="5.88243">
        <ele>705.59997558594</ele>
        <time>2014-02-20T16:02:38.000Z</time>
      </trkpt>
      <trkpt lat="45.89617" lon="5.88245">
        <ele>704.59997558594</ele>
        <time>2014-02-20T16:02:43.000Z</time>
      </trkpt>
      <trkpt lat="45.89619" lon="5.88245">
        <ele>704.59997558594</ele>
        <time>2014-02-20T16:02:46.000Z</time>
      </trkpt>
      <trkpt lat="45.89622" lon="5.88249">
        <ele>703</ele>
        <time>2014-02-20T16:02:49.000Z</time>
      </trkpt>
      <trkpt lat="45.89629" lon="5.8825">
        <ele>702.59997558594</ele>
        <time>2014-02-20T16:02:55.000Z</time>
      </trkpt>
      <trkpt lat="45.89632" lon="5.88251">
        <ele>702.20001220703</ele>
        <time>2014-02-20T16:02:57.000Z</time>
      </trkpt>
      <trkpt lat="45.8964" lon="5.88258">
        <ele>700.20001220703</ele>
        <time>2014-02-20T16:03:03.000Z</time>
      </trkpt>
      <trkpt lat="45.89646" lon="5.88263">
        <ele>698.79998779297</ele>
        <time>2014-02-20T16:03:07.000Z</time>
      </trkpt>
      <trkpt lat="45.89649" lon="5.88266">
        <ele>698</ele>
        <time>2014-02-20T16:03:10.000Z</time>
      </trkpt>
      <trkpt lat="45.8965" lon="5.88273">
        <ele>696.20001220703</ele>
        <time>2014-02-20T16:03:14.000Z</time>
      </trkpt>
      <trkpt lat="45.8965" lon="5.88293">
        <ele>691</ele>
        <time>2014-02-20T16:03:21.000Z</time>
      </trkpt>
      <trkpt lat="45.89651" lon="5.88296">
        <ele>690.40002441406</ele>
        <time>2014-02-20T16:03:23.000Z</time>
      </trkpt>
      <trkpt lat="45.89664" lon="5.88297">
        <ele>690.20001220703</ele>
        <time>2014-02-20T16:03:30.000Z</time>
      </trkpt>
      <trkpt lat="45.89674" lon="5.883">
        <ele>689.40002441406</ele>
        <time>2014-02-20T16:03:36.000Z</time>
      </trkpt>
      <trkpt lat="45.89684" lon="5.88304">
        <ele>688.59997558594</ele>
        <time>2014-02-20T16:03:42.000Z</time>
      </trkpt>
      <trkpt lat="45.89685" lon="5.88305">
        <ele>688.40002441406</ele>
        <time>2014-02-20T16:03:43.000Z</time>
      </trkpt>
      <trkpt lat="45.89692" lon="5.88306">
        <ele>688.20001220703</ele>
        <time>2014-02-20T16:03:51.000Z</time>
      </trkpt>
      <trkpt lat="45.89699" lon="5.88311">
        <ele>687</ele>
        <time>2014-02-20T16:03:57.000Z</time>
      </trkpt>
      <trkpt lat="45.89706" lon="5.88322">
        <ele>684.59997558594</ele>
        <time>2014-02-20T16:04:03.000Z</time>
      </trkpt>
      <trkpt lat="45.89711" lon="5.8833">
        <ele>683</ele>
        <time>2014-02-20T16:04:09.000Z</time>
      </trkpt>
      <trkpt lat="45.89714" lon="5.88335">
        <ele>681.59997558594</ele>
        <time>2014-02-20T16:04:12.000Z</time>
      </trkpt>
      <trkpt lat="45.89716" lon="5.8834">
        <ele>680.79998779297</ele>
        <time>2014-02-20T16:04:15.000Z</time>
      </trkpt>
    </trkseg>
  </trk>
</gpx>